UAE671 LIRF-OMDB
Flight info
| Callsign | UAE671 |
|---|---|
| Flight time | 6h 27m |
| Altitude | 19000 |
| Route | PEPIX L50 UNIXO/N0475F350 DCT BELIX UM728 SALUN N705 BOPIX N710 TAKRI M720 FYM M872 WEJ L604 NADIK/N0481F370 L604 GAS L308 DAROR P559 NALPO/N0474F350 P559 VUTEB |
| Aircraft | B77W/H-SDE1E2E3FGHIJ2J3J4J5M1RWXY/LB1D1 |
Departure
| Time | 2026-05-04 23:45 |
|---|---|
| Airport | Rome–Fiumicino Leonardo da Vinci International Airport (LIRF) |
Arrival
| Time | 2026-05-05 06:12 |
|---|---|
| Airport | Dubai International Airport (OMDB) |
| Time | Latitude | Longitude | Altitude | Speed | Heading |
|---|---|---|---|---|---|
| 2026-05-04 23:11 | 41.79759 | 12.25133 | 31 ft | 0 kts | 115° |
| 2026-05-04 23:26 | 41.79761 | 12.25129 | 31 ft | 2 kts | 114° |
| 2026-05-04 23:27 | 41.79767 | 12.25110 | 31 ft | 2 kts | 115° |
| 2026-05-04 23:27 | 41.79774 | 12.25091 | 31 ft | 2 kts | 115° |
| 2026-05-04 23:27 | 41.79780 | 12.25072 | 31 ft | 2 kts | 115° |
| 2026-05-04 23:27 | 41.79787 | 12.25053 | 31 ft | 2 kts | 115° |
| 2026-05-04 23:28 | 41.79793 | 12.25035 | 31 ft | 1 kts | 110° |
| 2026-05-04 23:28 | 41.79796 | 12.25029 | 31 ft | 1 kts | 68° |
| 2026-05-04 23:28 | 41.79794 | 12.25021 | 31 ft | 1 kts | 26° |
| 2026-05-04 23:28 | 41.79788 | 12.25017 | 31 ft | 0 kts | 20° |
| 2026-05-04 23:31 | 41.79788 | 12.25018 | 31 ft | 0 kts | 20° |
| 2026-05-04 23:33 | 41.79793 | 12.25021 | 31 ft | 3 kts | 25° |
| 2026-05-04 23:34 | 41.79837 | 12.25049 | 31 ft | 11 kts | 25° |
| 2026-05-04 23:34 | 41.79925 | 12.25105 | 31 ft | 13 kts | 25° |
| 2026-05-04 23:34 | 41.79996 | 12.25165 | 31 ft | 10 kts | 43° |
| 2026-05-04 23:34 | 41.80025 | 12.25226 | 31 ft | 9 kts | 72° |
| 2026-05-04 23:35 | 41.80024 | 12.25319 | 31 ft | 9 kts | 108° |
| 2026-05-04 23:35 | 41.79986 | 12.25433 | 31 ft | 18 kts | 115° |
| 2026-05-04 23:35 | 41.79936 | 12.25571 | 31 ft | 12 kts | 116° |
| 2026-05-04 23:35 | 41.79903 | 12.25660 | 31 ft | 8 kts | 116° |
| 2026-05-04 23:36 | 41.79876 | 12.25731 | 31 ft | 10 kts | 116° |
| 2026-05-04 23:36 | 41.79874 | 12.25807 | 31 ft | 8 kts | 62° |
| 2026-05-04 23:36 | 41.79934 | 12.25868 | 31 ft | 13 kts | 26° |
| 2026-05-04 23:36 | 41.80028 | 12.25926 | 31 ft | 16 kts | 24° |
| 2026-05-04 23:37 | 41.80133 | 12.25988 | 31 ft | 15 kts | 24° |
| 2026-05-04 23:37 | 41.80199 | 12.26027 | 31 ft | 9 kts | 24° |
| 2026-05-04 23:37 | 41.80270 | 12.26075 | 31 ft | 15 kts | 30° |
| 2026-05-04 23:37 | 41.80338 | 12.26143 | 31 ft | 14 kts | 49° |
| 2026-05-04 23:38 | 41.80386 | 12.26274 | 31 ft | 17 kts | 70° |
| 2026-05-04 23:38 | 41.80433 | 12.26451 | 31 ft | 22 kts | 70° |
| 2026-05-04 23:38 | 41.80476 | 12.26609 | 31 ft | 15 kts | 70° |
| 2026-05-04 23:38 | 41.80516 | 12.26759 | 31 ft | 17 kts | 69° |
| 2026-05-04 23:39 | 41.80543 | 12.26850 | 31 ft | 9 kts | 69° |
| 2026-05-04 23:39 | 41.80549 | 12.26872 | 31 ft | 0 kts | 69° |
| 2026-05-04 23:39 | 41.80551 | 12.26878 | 31 ft | 0 kts | 69° |
| 2026-05-04 23:40 | 41.80558 | 12.26904 | 31 ft | 6 kts | 70° |
| 2026-05-04 23:40 | 41.80572 | 12.26959 | 31 ft | 9 kts | 70° |
| 2026-05-04 23:40 | 41.80603 | 12.27022 | 31 ft | 6 kts | 41° |
| 2026-05-04 23:40 | 41.80649 | 12.27051 | 31 ft | 10 kts | 13° |
| 2026-05-04 23:41 | 41.80714 | 12.27062 | 31 ft | 11 kts | 5° |
| 2026-05-04 23:41 | 41.80779 | 12.27064 | 31 ft | 10 kts | 359° |
| 2026-05-04 23:41 | 41.80859 | 12.27051 | 31 ft | 8 kts | 344° |
| 2026-05-04 23:41 | 41.80872 | 12.27045 | 31 ft | 0 kts | 343° |
| 2026-05-04 23:42 | 41.80874 | 12.27045 | 31 ft | 2 kts | 343° |
| 2026-05-04 23:42 | 41.80912 | 12.27029 | 31 ft | 9 kts | 341° |
| 2026-05-04 23:43 | 41.80953 | 12.26996 | 31 ft | 7 kts | 306° |
| 2026-05-04 23:43 | 41.80950 | 12.26900 | 31 ft | 15 kts | 252° |
| 2026-05-04 23:43 | 41.80905 | 12.26739 | 31 ft | 19 kts | 249° |
| 2026-05-04 23:43 | 41.80851 | 12.26547 | 31 ft | 35 kts | 250° |
| 2026-05-04 23:44 | 41.80695 | 12.25986 | 31 ft | 98 kts | 249° |
| 2026-05-04 23:44 | 41.80362 | 12.24773 | 32 ft | 178 kts | 250° |
| 2026-05-04 23:44 | 41.79874 | 12.22998 | 73 ft | 222 kts | 250° |
| 2026-05-04 23:44 | 41.79340 | 12.20990 | 340 ft | 239 kts | 251° |
| 2026-05-04 23:45 | 41.78660 | 12.18959 | 596 ft | 245 kts | 238° |
| 2026-05-04 23:45 | 41.77298 | 12.17521 | 753 ft | 249 kts | 204° |
| 2026-05-04 23:45 | 41.75624 | 12.16936 | 1147 ft | 257 kts | 189° |
| 2026-05-04 23:45 | 41.73810 | 12.16733 | 1358 ft | 265 kts | 182° |
| 2026-05-04 23:46 | 41.71993 | 12.16738 | 1588 ft | 257 kts | 178° |
| 2026-05-04 23:46 | 41.70194 | 12.16837 | 1843 ft | 262 kts | 177° |
| 2026-05-04 23:46 | 41.68379 | 12.16968 | 2090 ft | 260 kts | 177° |
| 2026-05-04 23:46 | 41.66585 | 12.17099 | 2339 ft | 262 kts | 177° |
| 2026-05-04 23:47 | 41.64771 | 12.17223 | 2587 ft | 262 kts | 177° |
| 2026-05-04 23:47 | 41.62935 | 12.17337 | 2839 ft | 264 kts | 178° |
| 2026-05-04 23:47 | 41.61105 | 12.17439 | 3088 ft | 265 kts | 178° |
| 2026-05-04 23:47 | 41.59257 | 12.17534 | 3339 ft | 266 kts | 178° |
| 2026-05-04 23:48 | 41.57415 | 12.17553 | 3675 ft | 264 kts | 181° |
| 2026-05-04 23:48 | 41.55564 | 12.17428 | 4055 ft | 268 kts | 185° |
| 2026-05-04 23:48 | 41.53709 | 12.17168 | 4430 ft | 269 kts | 187° |
| 2026-05-04 23:48 | 41.51847 | 12.16797 | 4808 ft | 271 kts | 190° |
| 2026-05-04 23:49 | 41.49989 | 12.16363 | 5183 ft | 272 kts | 191° |
| 2026-05-04 23:49 | 41.48149 | 12.15907 | 5554 ft | 274 kts | 191° |
| 2026-05-04 23:49 | 41.46259 | 12.15428 | 5932 ft | 276 kts | 191° |
| 2026-05-04 23:49 | 41.44374 | 12.14950 | 6306 ft | 278 kts | 191° |
| 2026-05-04 23:50 | 41.42467 | 12.14470 | 6683 ft | 279 kts | 191° |
| 2026-05-04 23:50 | 41.40554 | 12.13993 | 7059 ft | 281 kts | 191° |
| 2026-05-04 23:50 | 41.38626 | 12.13516 | 7435 ft | 283 kts | 191° |
| 2026-05-04 23:50 | 41.36678 | 12.13038 | 7812 ft | 284 kts | 191° |
| 2026-05-04 23:51 | 41.34719 | 12.12636 | 8181 ft | 286 kts | 186° |
| 2026-05-04 23:51 | 41.32743 | 12.12639 | 8558 ft | 289 kts | 177° |
| 2026-05-04 23:51 | 41.30742 | 12.12977 | 8935 ft | 292 kts | 171° |
| 2026-05-04 23:51 | 41.28747 | 12.13541 | 9313 ft | 294 kts | 167° |
| 2026-05-04 23:52 | 41.26732 | 12.14258 | 9705 ft | 309 kts | 165° |
| 2026-05-04 23:52 | 41.24566 | 12.15120 | 10113 ft | 341 kts | 163° |
| 2026-05-04 23:52 | 41.22203 | 12.16115 | 10516 ft | 373 kts | 163° |
| 2026-05-04 23:52 | 41.19674 | 12.17223 | 10901 ft | 385 kts | 161° |
| 2026-05-04 23:53 | 41.17255 | 12.18699 | 11272 ft | 384 kts | 151° |
| 2026-05-04 23:53 | 41.14997 | 12.20646 | 11656 ft | 391 kts | 144° |
| 2026-05-04 23:53 | 41.12878 | 12.22849 | 12030 ft | 394 kts | 141° |
| 2026-05-04 23:53 | 41.10808 | 12.25252 | 12408 ft | 397 kts | 138° |
| 2026-05-04 23:54 | 41.08789 | 12.27752 | 12784 ft | 399 kts | 137° |
| 2026-05-04 23:54 | 41.06788 | 12.30321 | 13160 ft | 402 kts | 136° |
| 2026-05-04 23:54 | 41.04789 | 12.32933 | 13537 ft | 404 kts | 136° |
| 2026-05-04 23:54 | 41.02791 | 12.35563 | 13913 ft | 407 kts | 136° |
| 2026-05-04 23:55 | 41.00779 | 12.38214 | 14289 ft | 409 kts | 136° |
| 2026-05-04 23:55 | 40.98750 | 12.40880 | 14666 ft | 411 kts | 136° |
| 2026-05-04 23:55 | 40.94680 | 12.46194 | 15414 ft | 416 kts | 136° |
| 2026-05-04 23:56 | 40.92610 | 12.48876 | 15789 ft | 419 kts | 136° |
| 2026-05-04 23:56 | 40.90518 | 12.51576 | 16166 ft | 421 kts | 137° |
| 2026-05-04 23:56 | 40.88414 | 12.54282 | 16542 ft | 423 kts | 137° |
| 2026-05-04 23:56 | 40.86297 | 12.56995 | 16918 ft | 426 kts | 137° |
| 2026-05-04 23:57 | 40.84160 | 12.59726 | 17295 ft | 428 kts | 137° |
| 2026-05-04 23:57 | 40.82010 | 12.62468 | 17672 ft | 431 kts | 137° |
| 2026-05-04 23:57 | 40.79860 | 12.65234 | 18047 ft | 433 kts | 136° |
| 2026-05-04 23:57 | 40.77852 | 12.68132 | 18420 ft | 436 kts | 132° |
| 2026-05-04 23:58 | 40.75913 | 12.71226 | 18799 ft | 439 kts | 130° |
| 2026-05-04 23:58 | 40.74032 | 12.74422 | 19177 ft | 442 kts | 128° |
| 2026-05-04 23:58 | 40.72186 | 12.77676 | 19554 ft | 444 kts | 128° |
| 2026-05-04 23:58 | 40.70356 | 12.80974 | 19931 ft | 447 kts | 127° |
| 2026-05-04 23:59 | 40.68535 | 12.84296 | 20306 ft | 449 kts | 127° |
| 2026-05-04 23:59 | 40.66706 | 12.87649 | 20683 ft | 452 kts | 127° |
| 2026-05-04 23:59 | 40.64896 | 12.90977 | 21054 ft | 454 kts | 127° |
| 2026-05-04 23:59 | 40.63054 | 12.94362 | 21430 ft | 456 kts | 127° |
| 2026-05-05 00:00 | 40.61200 | 12.97767 | 21806 ft | 459 kts | 127° |
| 2026-05-05 00:00 | 40.60572 | 12.98919 | 21933 ft | 460 kts | 127° |
| 2026-05-05 00:00 | 40.57450 | 13.04635 | 22559 ft | 464 kts | 127° |
| 2026-05-05 00:00 | 40.55558 | 13.08089 | 22935 ft | 467 kts | 127° |
| 2026-05-05 00:01 | 40.53658 | 13.11551 | 23310 ft | 470 kts | 127° |
| 2026-05-05 00:01 | 40.51733 | 13.15051 | 23688 ft | 472 kts | 127° |
| 2026-05-05 00:01 | 40.49805 | 13.18550 | 24064 ft | 475 kts | 127° |
| 2026-05-05 00:01 | 40.47884 | 13.22029 | 24435 ft | 478 kts | 127° |
| 2026-05-05 00:02 | 40.45906 | 13.25607 | 24816 ft | 480 kts | 127° |
| 2026-05-05 00:02 | 40.43958 | 13.29124 | 25188 ft | 483 kts | 127° |
| 2026-05-05 00:02 | 40.41974 | 13.32701 | 25564 ft | 486 kts | 128° |
| 2026-05-05 00:02 | 40.39979 | 13.36291 | 25940 ft | 489 kts | 128° |
| 2026-05-05 00:03 | 40.37971 | 13.39900 | 26316 ft | 491 kts | 128° |
| 2026-05-05 00:03 | 40.35951 | 13.43525 | 26692 ft | 494 kts | 128° |
| 2026-05-05 00:03 | 40.33915 | 13.47174 | 27068 ft | 497 kts | 128° |
| 2026-05-05 00:03 | 40.31863 | 13.50847 | 27445 ft | 500 kts | 128° |
| 2026-05-05 00:04 | 40.29808 | 13.54522 | 27821 ft | 503 kts | 128° |
| 2026-05-05 00:04 | 40.27735 | 13.58223 | 28197 ft | 506 kts | 128° |
| 2026-05-05 00:04 | 40.25673 | 13.61900 | 28568 ft | 508 kts | 128° |
| 2026-05-05 00:04 | 40.23573 | 13.65639 | 28945 ft | 511 kts | 128° |
| 2026-05-05 00:05 | 40.21458 | 13.69402 | 29321 ft | 514 kts | 128° |
| 2026-05-05 00:05 | 40.19333 | 13.73177 | 29697 ft | 517 kts | 128° |
| 2026-05-05 00:05 | 40.17198 | 13.76965 | 30073 ft | 520 kts | 128° |
| 2026-05-05 00:05 | 40.15044 | 13.80781 | 30449 ft | 523 kts | 128° |
| 2026-05-05 00:06 | 40.12877 | 13.84616 | 30825 ft | 526 kts | 128° |
| 2026-05-05 00:06 | 40.10699 | 13.88465 | 31201 ft | 529 kts | 128° |
| 2026-05-05 00:06 | 40.08536 | 13.92284 | 31572 ft | 532 kts | 128° |
| 2026-05-05 00:06 | 40.06326 | 13.96181 | 31948 ft | 535 kts | 128° |
| 2026-05-05 00:07 | 40.04104 | 14.00095 | 32324 ft | 537 kts | 128° |
| 2026-05-05 00:07 | 40.01876 | 14.04014 | 32699 ft | 537 kts | 128° |
| 2026-05-05 00:07 | 39.99650 | 14.07926 | 33073 ft | 538 kts | 128° |
| 2026-05-05 00:07 | 39.97408 | 14.11859 | 33449 ft | 542 kts | 128° |
| 2026-05-05 00:08 | 39.95158 | 14.15801 | 33808 ft | 546 kts | 128° |
| 2026-05-05 00:08 | 39.92867 | 14.19810 | 33966 ft | 555 kts | 128° |
| 2026-05-05 00:08 | 39.90540 | 14.23874 | 33999 ft | 564 kts | 128° |
| 2026-05-05 00:09 | 39.85846 | 14.32057 | 33998 ft | 571 kts | 128° |
| 2026-05-05 00:09 | 39.81089 | 14.40334 | 33996 ft | 570 kts | 128° |
| 2026-05-05 00:10 | 39.76369 | 14.48532 | 33995 ft | 563 kts | 128° |
| 2026-05-05 00:10 | 39.71690 | 14.56639 | 33995 ft | 559 kts | 128° |
| 2026-05-05 00:11 | 39.67084 | 14.64598 | 33994 ft | 548 kts | 128° |
| 2026-05-05 00:11 | 39.64818 | 14.68510 | 33992 ft | 537 kts | 128° |
| 2026-05-05 00:11 | 39.62587 | 14.72355 | 33993 ft | 531 kts | 128° |
| 2026-05-05 00:12 | 39.58180 | 14.79934 | 33994 ft | 524 kts | 129° |
| 2026-05-05 00:12 | 39.53801 | 14.87440 | 33995 ft | 520 kts | 129° |
| 2026-05-05 00:13 | 39.49467 | 14.94847 | 33995 ft | 518 kts | 129° |
| 2026-05-05 00:13 | 39.45110 | 15.02275 | 33996 ft | 518 kts | 129° |
| 2026-05-05 00:14 | 39.40758 | 15.09678 | 33996 ft | 517 kts | 129° |
| 2026-05-05 00:14 | 39.36398 | 15.17076 | 33996 ft | 517 kts | 129° |
| 2026-05-05 00:15 | 39.32032 | 15.24468 | 33996 ft | 518 kts | 129° |
| 2026-05-05 00:15 | 39.27658 | 15.31856 | 33996 ft | 518 kts | 129° |
| 2026-05-05 00:16 | 39.23306 | 15.39193 | 33996 ft | 518 kts | 129° |
| 2026-05-05 00:16 | 39.18920 | 15.46570 | 33996 ft | 518 kts | 129° |
| 2026-05-05 00:17 | 39.14533 | 15.53932 | 33996 ft | 518 kts | 129° |
| 2026-05-05 00:17 | 39.10142 | 15.61283 | 33996 ft | 518 kts | 129° |
| 2026-05-05 00:18 | 39.05741 | 15.68636 | 33996 ft | 518 kts | 129° |
| 2026-05-05 00:18 | 39.01362 | 15.75934 | 33996 ft | 518 kts | 129° |
| 2026-05-05 00:19 | 38.96959 | 15.83257 | 33996 ft | 518 kts | 129° |
| 2026-05-05 00:19 | 38.92542 | 15.90585 | 33996 ft | 518 kts | 129° |
| 2026-05-05 00:20 | 38.88163 | 15.97833 | 33996 ft | 518 kts | 129° |
| 2026-05-05 00:20 | 38.83736 | 16.05145 | 33996 ft | 518 kts | 129° |
| 2026-05-05 00:21 | 38.79314 | 16.12433 | 33996 ft | 518 kts | 129° |
| 2026-05-05 00:21 | 38.74876 | 16.19729 | 33996 ft | 518 kts | 129° |
| 2026-05-05 00:22 | 38.70446 | 16.26997 | 33996 ft | 518 kts | 130° |
| 2026-05-05 00:22 | 38.66037 | 16.34215 | 33996 ft | 518 kts | 130° |
| 2026-05-05 00:23 | 38.61599 | 16.41463 | 33996 ft | 518 kts | 130° |
| 2026-05-05 00:23 | 38.57149 | 16.48713 | 33996 ft | 518 kts | 130° |
| 2026-05-05 00:24 | 38.52689 | 16.55965 | 33996 ft | 518 kts | 130° |
| 2026-05-05 00:24 | 38.48269 | 16.63135 | 33996 ft | 518 kts | 130° |
| 2026-05-05 00:25 | 38.43802 | 16.70365 | 33996 ft | 518 kts | 130° |
| 2026-05-05 00:25 | 38.39339 | 16.77573 | 33996 ft | 518 kts | 130° |
| 2026-05-05 00:26 | 38.34868 | 16.84778 | 33996 ft | 518 kts | 130° |
| 2026-05-05 00:26 | 38.30426 | 16.91920 | 33996 ft | 518 kts | 130° |
| 2026-05-05 00:27 | 38.25951 | 16.99098 | 33996 ft | 518 kts | 130° |
| 2026-05-05 00:27 | 38.21469 | 17.06274 | 33996 ft | 518 kts | 130° |
| 2026-05-05 00:28 | 38.16983 | 17.13438 | 33996 ft | 518 kts | 130° |
| 2026-05-05 00:28 | 38.12491 | 17.20598 | 33996 ft | 518 kts | 130° |
| 2026-05-05 00:29 | 38.08026 | 17.27699 | 33996 ft | 518 kts | 130° |
| 2026-05-05 00:29 | 38.03530 | 17.34833 | 33996 ft | 518 kts | 130° |
| 2026-05-05 00:30 | 37.99020 | 17.41974 | 33996 ft | 518 kts | 130° |
| 2026-05-05 00:30 | 37.94518 | 17.49086 | 33996 ft | 518 kts | 130° |
| 2026-05-05 00:31 | 37.90032 | 17.56159 | 33996 ft | 518 kts | 130° |
| 2026-05-05 00:31 | 37.85518 | 17.63260 | 33996 ft | 518 kts | 130° |
| 2026-05-05 00:32 | 37.80995 | 17.70358 | 33996 ft | 518 kts | 130° |
| 2026-05-05 00:32 | 37.76470 | 17.77445 | 33996 ft | 518 kts | 130° |
| 2026-05-05 00:33 | 37.71948 | 17.84513 | 33996 ft | 518 kts | 130° |
| 2026-05-05 00:33 | 37.67444 | 17.91537 | 33996 ft | 518 kts | 131° |
| 2026-05-05 00:34 | 37.62903 | 17.98603 | 33996 ft | 518 kts | 131° |
| 2026-05-05 00:34 | 37.58364 | 18.05652 | 33996 ft | 518 kts | 131° |
| 2026-05-05 00:35 | 37.53818 | 18.12695 | 33996 ft | 518 kts | 131° |
| 2026-05-05 00:35 | 37.49275 | 18.19721 | 33996 ft | 518 kts | 131° |
| 2026-05-05 00:36 | 37.44752 | 18.26699 | 33996 ft | 518 kts | 131° |
| 2026-05-05 00:36 | 37.40200 | 18.33708 | 33996 ft | 518 kts | 131° |
| 2026-05-05 00:37 | 37.35636 | 18.40719 | 33996 ft | 518 kts | 131° |
| 2026-05-05 00:37 | 37.31097 | 18.47679 | 33996 ft | 518 kts | 131° |
| 2026-05-05 00:38 | 37.26536 | 18.54657 | 33996 ft | 518 kts | 131° |
| 2026-05-05 00:38 | 37.21960 | 18.61643 | 33996 ft | 518 kts | 131° |
| 2026-05-05 00:39 | 37.17379 | 18.68622 | 33996 ft | 518 kts | 131° |
| 2026-05-05 00:39 | 37.12826 | 18.75544 | 33996 ft | 518 kts | 131° |
| 2026-05-05 00:40 | 37.08245 | 18.82495 | 33996 ft | 518 kts | 131° |
| 2026-05-05 00:40 | 37.03654 | 18.89446 | 33996 ft | 518 kts | 131° |
| 2026-05-05 00:41 | 36.99072 | 18.96377 | 33995 ft | 518 kts | 131° |
| 2026-05-05 00:41 | 36.94902 | 19.03671 | 33998 ft | 519 kts | 124° |
| 2026-05-05 00:42 | 36.91158 | 19.11397 | 33997 ft | 520 kts | 121° |
| 2026-05-05 00:42 | 36.87624 | 19.19277 | 33996 ft | 521 kts | 120° |
| 2026-05-05 00:43 | 36.84153 | 19.27225 | 33996 ft | 521 kts | 120° |
| 2026-05-05 00:43 | 36.80693 | 19.35154 | 33996 ft | 520 kts | 120° |
| 2026-05-05 00:44 | 36.77230 | 19.43005 | 33996 ft | 520 kts | 120° |
| 2026-05-05 00:44 | 36.73698 | 19.50894 | 33996 ft | 520 kts | 121° |
| 2026-05-05 00:45 | 36.70137 | 19.58743 | 33996 ft | 520 kts | 121° |
| 2026-05-05 00:45 | 36.66556 | 19.66576 | 33996 ft | 520 kts | 121° |
| 2026-05-05 00:46 | 36.62993 | 19.74342 | 33996 ft | 520 kts | 121° |
| 2026-05-05 00:46 | 36.59401 | 19.82150 | 33996 ft | 520 kts | 121° |
| 2026-05-05 00:47 | 36.55796 | 19.89969 | 33996 ft | 520 kts | 121° |
| 2026-05-05 00:47 | 36.52192 | 19.97771 | 33996 ft | 520 kts | 121° |
| 2026-05-05 00:48 | 36.48612 | 20.05505 | 33996 ft | 520 kts | 121° |
| 2026-05-05 00:48 | 36.45003 | 20.13286 | 33996 ft | 520 kts | 121° |
| 2026-05-05 00:49 | 36.41383 | 20.21074 | 33996 ft | 520 kts | 121° |
| 2026-05-05 00:49 | 36.37766 | 20.28840 | 33996 ft | 520 kts | 121° |
| 2026-05-05 00:50 | 36.34138 | 20.36610 | 33996 ft | 520 kts | 121° |
| 2026-05-05 00:50 | 36.30535 | 20.44311 | 33996 ft | 520 kts | 121° |
| 2026-05-05 00:51 | 36.26897 | 20.52069 | 33996 ft | 520 kts | 121° |
| 2026-05-05 00:51 | 36.23255 | 20.59817 | 33996 ft | 520 kts | 122° |
| 2026-05-05 00:52 | 36.19613 | 20.67548 | 33996 ft | 520 kts | 122° |
| 2026-05-05 00:52 | 36.15986 | 20.75228 | 33996 ft | 520 kts | 122° |
| 2026-05-05 00:53 | 36.12330 | 20.82953 | 33996 ft | 520 kts | 122° |
| 2026-05-05 00:53 | 36.08673 | 20.90663 | 33996 ft | 520 kts | 122° |
| 2026-05-05 00:54 | 36.05008 | 20.98372 | 33996 ft | 520 kts | 122° |
| 2026-05-05 00:54 | 36.01362 | 21.06023 | 33996 ft | 520 kts | 122° |
| 2026-05-05 00:55 | 35.97689 | 21.13714 | 33996 ft | 520 kts | 122° |
| 2026-05-05 00:55 | 35.94014 | 21.21392 | 33996 ft | 520 kts | 122° |
| 2026-05-05 00:56 | 35.90328 | 21.29073 | 33996 ft | 520 kts | 122° |
| 2026-05-05 00:56 | 35.86664 | 21.36692 | 33996 ft | 520 kts | 122° |
| 2026-05-05 00:57 | 35.82974 | 21.44351 | 33996 ft | 520 kts | 122° |
| 2026-05-05 00:57 | 35.79276 | 21.52007 | 33996 ft | 520 kts | 122° |
| 2026-05-05 00:58 | 35.75572 | 21.59658 | 33996 ft | 520 kts | 122° |
| 2026-05-05 00:58 | 35.71887 | 21.67252 | 33996 ft | 520 kts | 122° |
| 2026-05-05 00:59 | 35.68172 | 21.74892 | 33996 ft | 520 kts | 122° |
| 2026-05-05 00:59 | 35.64456 | 21.82518 | 33996 ft | 520 kts | 122° |
| 2026-05-05 01:00 | 35.61368 | 21.88840 | 33996 ft | 520 kts | 122° |
| 2026-05-05 01:00 | 35.57034 | 21.97695 | 33996 ft | 520 kts | 122° |
| 2026-05-05 01:01 | 35.53303 | 22.05300 | 33996 ft | 520 kts | 122° |
| 2026-05-05 01:01 | 35.50201 | 22.11610 | 33996 ft | 520 kts | 122° |
| 2026-05-05 01:02 | 35.46457 | 22.19211 | 33996 ft | 520 kts | 122° |
| 2026-05-05 01:02 | 35.42713 | 22.26796 | 33996 ft | 520 kts | 122° |
| 2026-05-05 01:03 | 35.38222 | 22.35483 | 33997 ft | 519 kts | 126° |
| 2026-05-05 01:03 | 35.34680 | 22.41477 | 33997 ft | 518 kts | 128° |
| 2026-05-05 01:04 | 35.30310 | 22.48426 | 33996 ft | 518 kts | 130° |
| 2026-05-05 01:04 | 35.23587 | 22.58785 | 33996 ft | 518 kts | 130° |
| 2026-05-05 01:05 | 35.19086 | 22.65662 | 33996 ft | 518 kts | 130° |
| 2026-05-05 01:05 | 35.14585 | 22.72537 | 33996 ft | 518 kts | 130° |
| 2026-05-05 01:06 | 35.10123 | 22.79361 | 33996 ft | 518 kts | 130° |
| 2026-05-05 01:06 | 35.05624 | 22.86248 | 33996 ft | 518 kts | 130° |
| 2026-05-05 01:07 | 35.01137 | 22.93120 | 33996 ft | 518 kts | 130° |
| 2026-05-05 01:07 | 34.96648 | 22.99994 | 33996 ft | 518 kts | 130° |
| 2026-05-05 01:08 | 34.92163 | 23.06856 | 33996 ft | 518 kts | 130° |
| 2026-05-05 01:08 | 34.87703 | 23.13672 | 33996 ft | 518 kts | 130° |
| 2026-05-05 01:09 | 34.83212 | 23.20527 | 33996 ft | 518 kts | 130° |
| 2026-05-05 01:09 | 34.78716 | 23.27376 | 33996 ft | 518 kts | 130° |
| 2026-05-05 01:10 | 34.74243 | 23.34178 | 33996 ft | 518 kts | 130° |
| 2026-05-05 01:10 | 34.69739 | 23.41013 | 33996 ft | 518 kts | 130° |
| 2026-05-05 01:11 | 34.65228 | 23.47838 | 33996 ft | 518 kts | 130° |
| 2026-05-05 01:11 | 34.60712 | 23.54651 | 33996 ft | 518 kts | 130° |
| 2026-05-05 01:12 | 34.56193 | 23.61454 | 33996 ft | 518 kts | 130° |
| 2026-05-05 01:12 | 34.51669 | 23.68251 | 33996 ft | 518 kts | 130° |
| 2026-05-05 01:13 | 34.47172 | 23.74996 | 33996 ft | 518 kts | 130° |
| 2026-05-05 01:13 | 34.42638 | 23.81783 | 33996 ft | 518 kts | 131° |
| 2026-05-05 01:14 | 34.38106 | 23.88554 | 33996 ft | 518 kts | 131° |
| 2026-05-05 01:14 | 34.33595 | 23.95282 | 33996 ft | 518 kts | 131° |
| 2026-05-05 01:15 | 34.29058 | 24.02036 | 33996 ft | 518 kts | 131° |
| 2026-05-05 01:15 | 34.24513 | 24.08788 | 33996 ft | 518 kts | 131° |
| 2026-05-05 01:16 | 34.19966 | 24.15533 | 33996 ft | 518 kts | 131° |
| 2026-05-05 01:16 | 34.15439 | 24.22234 | 33996 ft | 518 kts | 131° |
| 2026-05-05 01:17 | 34.10882 | 24.28968 | 33996 ft | 518 kts | 131° |
| 2026-05-05 01:17 | 34.06322 | 24.35693 | 33996 ft | 518 kts | 131° |
| 2026-05-05 01:18 | 34.01745 | 24.42391 | 33995 ft | 517 kts | 133° |
| 2026-05-05 01:18 | 33.96826 | 24.48609 | 33998 ft | 516 kts | 137° |
| 2026-05-05 01:19 | 33.91595 | 24.54508 | 33997 ft | 515 kts | 140° |
| 2026-05-05 01:19 | 33.86251 | 24.60264 | 33996 ft | 515 kts | 140° |
| 2026-05-05 01:20 | 33.80873 | 24.65958 | 33996 ft | 515 kts | 141° |
| 2026-05-05 01:20 | 33.75492 | 24.71631 | 33996 ft | 515 kts | 141° |
| 2026-05-05 01:21 | 33.70148 | 24.77263 | 33996 ft | 515 kts | 141° |
| 2026-05-05 01:21 | 33.64767 | 24.82941 | 33996 ft | 515 kts | 141° |
| 2026-05-05 01:22 | 33.59390 | 24.88621 | 33996 ft | 515 kts | 141° |
| 2026-05-05 01:22 | 33.54019 | 24.94298 | 33996 ft | 515 kts | 141° |
| 2026-05-05 01:23 | 33.48646 | 24.99977 | 33996 ft | 515 kts | 141° |
| 2026-05-05 01:23 | 33.43319 | 25.05605 | 33996 ft | 515 kts | 141° |
| 2026-05-05 01:24 | 33.37948 | 25.11276 | 33996 ft | 515 kts | 141° |
| 2026-05-05 01:24 | 33.32574 | 25.16944 | 33996 ft | 515 kts | 141° |
| 2026-05-05 01:25 | 33.27201 | 25.22603 | 33996 ft | 515 kts | 141° |
| 2026-05-05 01:25 | 33.21860 | 25.28222 | 33996 ft | 515 kts | 141° |
| 2026-05-05 01:26 | 33.16486 | 25.33866 | 33996 ft | 515 kts | 141° |
| 2026-05-05 01:26 | 33.11102 | 25.39513 | 33996 ft | 515 kts | 141° |
| 2026-05-05 01:27 | 33.05722 | 25.45146 | 33996 ft | 515 kts | 141° |
| 2026-05-05 01:27 | 33.00376 | 25.50735 | 33996 ft | 515 kts | 141° |
| 2026-05-05 01:28 | 32.94995 | 25.56352 | 33996 ft | 515 kts | 141° |
| 2026-05-05 01:28 | 32.89606 | 25.61967 | 33996 ft | 515 kts | 141° |
| 2026-05-05 01:29 | 32.84215 | 25.67575 | 33996 ft | 515 kts | 141° |
| 2026-05-05 01:29 | 32.78818 | 25.73180 | 33996 ft | 515 kts | 141° |
| 2026-05-05 01:30 | 32.73460 | 25.78734 | 33996 ft | 515 kts | 141° |
| 2026-05-05 01:30 | 32.68066 | 25.84319 | 33996 ft | 515 kts | 141° |
| 2026-05-05 01:31 | 32.62665 | 25.89899 | 33996 ft | 515 kts | 141° |
| 2026-05-05 01:31 | 32.57267 | 25.95469 | 33996 ft | 515 kts | 141° |
| 2026-05-05 01:32 | 32.51898 | 26.00998 | 33996 ft | 515 kts | 141° |
| 2026-05-05 01:32 | 32.46490 | 26.06559 | 33996 ft | 515 kts | 141° |
| 2026-05-05 01:33 | 32.41081 | 26.12112 | 33996 ft | 515 kts | 141° |
| 2026-05-05 01:33 | 32.35672 | 26.17656 | 33996 ft | 515 kts | 141° |
| 2026-05-05 01:34 | 32.30254 | 26.23199 | 33996 ft | 515 kts | 141° |
| 2026-05-05 01:34 | 32.24880 | 26.28689 | 33996 ft | 515 kts | 141° |
| 2026-05-05 01:35 | 32.19462 | 26.34215 | 33996 ft | 515 kts | 141° |
| 2026-05-05 01:35 | 32.14035 | 26.39740 | 33996 ft | 515 kts | 141° |
| 2026-05-05 01:36 | 32.08616 | 26.45249 | 33996 ft | 515 kts | 141° |
| 2026-05-05 01:36 | 32.03225 | 26.50721 | 33996 ft | 515 kts | 141° |
| 2026-05-05 01:37 | 31.97798 | 26.56219 | 33996 ft | 515 kts | 141° |
| 2026-05-05 01:37 | 31.92372 | 26.61709 | 33996 ft | 515 kts | 141° |
| 2026-05-05 01:38 | 31.86940 | 26.67195 | 33996 ft | 515 kts | 141° |
| 2026-05-05 01:38 | 31.81545 | 26.72636 | 33996 ft | 515 kts | 141° |
| 2026-05-05 01:39 | 31.76100 | 26.78118 | 33996 ft | 515 kts | 141° |
| 2026-05-05 01:39 | 31.70662 | 26.83583 | 33996 ft | 515 kts | 141° |
| 2026-05-05 01:40 | 31.65223 | 26.89042 | 33996 ft | 514 kts | 141° |
| 2026-05-05 01:40 | 31.59815 | 26.94461 | 33996 ft | 514 kts | 141° |
| 2026-05-05 01:41 | 31.54375 | 26.99904 | 33996 ft | 514 kts | 142° |
| 2026-05-05 01:41 | 31.48928 | 27.05345 | 33996 ft | 514 kts | 142° |
| 2026-05-05 01:42 | 31.43478 | 27.10780 | 33996 ft | 514 kts | 142° |
| 2026-05-05 01:42 | 31.38059 | 27.16176 | 33996 ft | 514 kts | 142° |
| 2026-05-05 01:43 | 31.32503 | 27.21427 | 33995 ft | 512 kts | 148° |
| 2026-05-05 01:43 | 31.26294 | 27.25418 | 33999 ft | 508 kts | 158° |
| 2026-05-05 01:44 | 31.19753 | 27.28520 | 33998 ft | 507 kts | 162° |
| 2026-05-05 01:44 | 31.13145 | 27.31210 | 33996 ft | 506 kts | 164° |
| 2026-05-05 01:45 | 31.06468 | 27.33814 | 33996 ft | 506 kts | 164° |
| 2026-05-05 01:45 | 30.99974 | 27.37024 | 33997 ft | 510 kts | 153° |
| 2026-05-05 01:46 | 30.94037 | 27.41564 | 33999 ft | 513 kts | 146° |
| 2026-05-05 01:46 | 30.88420 | 27.46631 | 33997 ft | 514 kts | 143° |
| 2026-05-05 01:47 | 30.82886 | 27.51917 | 33996 ft | 514 kts | 142° |
| 2026-05-05 01:47 | 30.77383 | 27.57239 | 33996 ft | 514 kts | 142° |
| 2026-05-05 01:48 | 30.71878 | 27.62539 | 33996 ft | 514 kts | 142° |
| 2026-05-05 01:48 | 30.66381 | 27.67779 | 33996 ft | 514 kts | 143° |
| 2026-05-05 01:49 | 30.60832 | 27.73016 | 33996 ft | 514 kts | 143° |
| 2026-05-05 01:49 | 30.55266 | 27.78223 | 33996 ft | 514 kts | 143° |
| 2026-05-05 01:50 | 30.49691 | 27.83402 | 33996 ft | 514 kts | 143° |
| 2026-05-05 01:50 | 30.44133 | 27.88538 | 33996 ft | 514 kts | 143° |
| 2026-05-05 01:51 | 30.38543 | 27.93682 | 33996 ft | 514 kts | 144° |
| 2026-05-05 01:51 | 30.32938 | 27.98825 | 33996 ft | 514 kts | 144° |
| 2026-05-05 01:52 | 30.27332 | 28.03955 | 33996 ft | 514 kts | 144° |
| 2026-05-05 01:52 | 30.21759 | 28.09044 | 33996 ft | 514 kts | 144° |
| 2026-05-05 01:53 | 30.16144 | 28.14161 | 33996 ft | 514 kts | 144° |
| 2026-05-05 01:53 | 30.10531 | 28.19268 | 33996 ft | 514 kts | 144° |
| 2026-05-05 01:54 | 30.04920 | 28.24366 | 33996 ft | 514 kts | 144° |
| 2026-05-05 01:54 | 29.99335 | 28.29433 | 33996 ft | 514 kts | 144° |
| 2026-05-05 01:55 | 29.93722 | 28.34518 | 33996 ft | 514 kts | 144° |
| 2026-05-05 01:55 | 29.88140 | 28.39666 | 33995 ft | 514 kts | 141° |
| 2026-05-05 01:56 | 29.83113 | 28.45568 | 33998 ft | 517 kts | 133° |
| 2026-05-05 01:56 | 29.78571 | 28.51986 | 33998 ft | 518 kts | 129° |
| 2026-05-05 01:57 | 29.74272 | 28.58597 | 33996 ft | 519 kts | 128° |
| 2026-05-05 01:57 | 29.70027 | 28.65303 | 33996 ft | 519 kts | 128° |
| 2026-05-05 01:58 | 29.65763 | 28.71984 | 33996 ft | 518 kts | 128° |
| 2026-05-05 01:58 | 29.61408 | 28.78587 | 33996 ft | 518 kts | 129° |
| 2026-05-05 01:59 | 29.57024 | 28.85097 | 33996 ft | 518 kts | 129° |
| 2026-05-05 01:59 | 29.52596 | 28.91614 | 33996 ft | 518 kts | 130° |
| 2026-05-05 02:00 | 29.48154 | 28.98134 | 33996 ft | 518 kts | 130° |
| 2026-05-05 02:00 | 29.43749 | 29.04620 | 33995 ft | 518 kts | 128° |
| 2026-05-05 02:01 | 29.41896 | 29.08157 | 33991 ft | 520 kts | 115° |
| 2026-05-05 02:01 | 29.40770 | 29.12099 | 34000 ft | 522 kts | 104° |
| 2026-05-05 02:01 | 29.39879 | 29.20353 | 34001 ft | 523 kts | 92° |
| 2026-05-05 02:02 | 29.39852 | 29.28707 | 33998 ft | 524 kts | 88° |
| 2026-05-05 02:02 | 29.40101 | 29.37049 | 33996 ft | 524 kts | 88° |
| 2026-05-05 02:03 | 29.40376 | 29.45394 | 33996 ft | 524 kts | 88° |
| 2026-05-05 02:03 | 29.40584 | 29.53679 | 33996 ft | 524 kts | 89° |
| 2026-05-05 02:04 | 29.40706 | 29.62030 | 33996 ft | 524 kts | 89° |
| 2026-05-05 02:04 | 29.40747 | 29.70384 | 33996 ft | 524 kts | 90° |
| 2026-05-05 02:05 | 29.40726 | 29.78681 | 33996 ft | 524 kts | 90° |
| 2026-05-05 02:05 | 29.40656 | 29.87025 | 33996 ft | 524 kts | 91° |
| 2026-05-05 02:06 | 29.40553 | 29.95384 | 33996 ft | 524 kts | 91° |
| 2026-05-05 02:06 | 29.40427 | 30.03724 | 33996 ft | 524 kts | 91° |
| 2026-05-05 02:07 | 29.40286 | 30.12025 | 33996 ft | 524 kts | 91° |
| 2026-05-05 02:07 | 29.40132 | 30.20367 | 33996 ft | 524 kts | 91° |
| 2026-05-05 02:08 | 29.39970 | 30.28716 | 33996 ft | 524 kts | 91° |
| 2026-05-05 02:08 | 29.39731 | 30.37054 | 33993 ft | 523 kts | 96° |
| 2026-05-05 02:09 | 29.38889 | 30.41025 | 33992 ft | 520 kts | 112° |
| 2026-05-05 02:09 | 29.37206 | 30.44744 | 34002 ft | 518 kts | 124° |
| 2026-05-05 02:09 | 29.32745 | 30.51115 | 34002 ft | 516 kts | 135° |
| 2026-05-05 02:10 | 29.27621 | 30.56870 | 33998 ft | 515 kts | 139° |
| 2026-05-05 02:10 | 29.22326 | 30.62415 | 33996 ft | 515 kts | 140° |
| 2026-05-05 02:11 | 29.17076 | 30.67913 | 33996 ft | 515 kts | 139° |
| 2026-05-05 02:11 | 29.11848 | 30.73522 | 33996 ft | 516 kts | 138° |
| 2026-05-05 02:12 | 29.04124 | 30.82094 | 33996 ft | 516 kts | 137° |
| 2026-05-05 02:13 | 28.99045 | 30.87884 | 33996 ft | 516 kts | 137° |
| 2026-05-05 02:13 | 28.94004 | 30.93712 | 33996 ft | 516 kts | 136° |
| 2026-05-05 02:14 | 28.89017 | 30.99529 | 33996 ft | 516 kts | 136° |
| 2026-05-05 02:14 | 28.84000 | 31.05410 | 33996 ft | 516 kts | 136° |
| 2026-05-05 02:15 | 28.79002 | 31.11282 | 33996 ft | 516 kts | 136° |
| 2026-05-05 02:15 | 28.74007 | 31.17154 | 33996 ft | 516 kts | 136° |
| 2026-05-05 02:16 | 28.69086 | 31.23045 | 33996 ft | 517 kts | 135° |
| 2026-05-05 02:16 | 28.64219 | 31.29066 | 33996 ft | 517 kts | 134° |
| 2026-05-05 02:17 | 28.59388 | 31.35126 | 33996 ft | 517 kts | 134° |
| 2026-05-05 02:17 | 28.54602 | 31.41155 | 33996 ft | 517 kts | 134° |
| 2026-05-05 02:18 | 28.49783 | 31.47228 | 33996 ft | 517 kts | 134° |
| 2026-05-05 02:18 | 28.44967 | 31.53286 | 33996 ft | 517 kts | 134° |
| 2026-05-05 02:19 | 28.40145 | 31.59340 | 33996 ft | 517 kts | 134° |
| 2026-05-05 02:19 | 28.35346 | 31.65349 | 33996 ft | 517 kts | 134° |
| 2026-05-05 02:20 | 28.30509 | 31.71394 | 33996 ft | 517 kts | 134° |
| 2026-05-05 02:20 | 28.25678 | 31.77419 | 33996 ft | 517 kts | 134° |
| 2026-05-05 02:21 | 28.20830 | 31.83455 | 33996 ft | 517 kts | 134° |
| 2026-05-05 02:21 | 28.16019 | 31.89435 | 33996 ft | 517 kts | 134° |
| 2026-05-05 02:22 | 28.11176 | 31.95446 | 33996 ft | 517 kts | 134° |
| 2026-05-05 02:22 | 28.06324 | 32.01460 | 33996 ft | 517 kts | 134° |
| 2026-05-05 02:23 | 28.01918 | 32.07884 | 33998 ft | 519 kts | 125° |
| 2026-05-05 02:23 | 27.98161 | 32.14816 | 33998 ft | 520 kts | 121° |
| 2026-05-05 02:24 | 27.94664 | 32.21984 | 33996 ft | 521 kts | 120° |
| 2026-05-05 02:24 | 27.91267 | 32.29212 | 33996 ft | 521 kts | 119° |
| 2026-05-05 02:25 | 27.87891 | 32.36447 | 33996 ft | 521 kts | 119° |
| 2026-05-05 02:25 | 27.84498 | 32.43679 | 33996 ft | 521 kts | 119° |
| 2026-05-05 02:26 | 27.81104 | 32.50848 | 33996 ft | 520 kts | 120° |
| 2026-05-05 02:26 | 27.77668 | 32.58044 | 33996 ft | 520 kts | 120° |
| 2026-05-05 02:27 | 27.74217 | 32.65220 | 33996 ft | 520 kts | 120° |
| 2026-05-05 02:27 | 27.70745 | 32.72394 | 33996 ft | 520 kts | 120° |
| 2026-05-05 02:28 | 27.67288 | 32.79505 | 33996 ft | 520 kts | 120° |
| 2026-05-05 02:28 | 27.63799 | 32.86656 | 33996 ft | 520 kts | 120° |
| 2026-05-05 02:29 | 27.60307 | 32.93792 | 33996 ft | 520 kts | 120° |
| 2026-05-05 02:29 | 27.56803 | 33.00936 | 33996 ft | 520 kts | 120° |
| 2026-05-05 02:30 | 27.53323 | 33.08016 | 33996 ft | 520 kts | 120° |
| 2026-05-05 02:30 | 27.49813 | 33.15142 | 33996 ft | 520 kts | 120° |
| 2026-05-05 02:31 | 27.46298 | 33.22266 | 33996 ft | 520 kts | 120° |
| 2026-05-05 02:31 | 27.42780 | 33.29386 | 33996 ft | 520 kts | 120° |
| 2026-05-05 02:32 | 27.39258 | 33.36500 | 33996 ft | 520 kts | 120° |
| 2026-05-05 02:32 | 27.35757 | 33.43560 | 33996 ft | 520 kts | 120° |
| 2026-05-05 02:33 | 27.32224 | 33.50672 | 33996 ft | 520 kts | 121° |
| 2026-05-05 02:33 | 27.28697 | 33.57759 | 33996 ft | 520 kts | 121° |
| 2026-05-05 02:34 | 27.25158 | 33.64859 | 33996 ft | 520 kts | 121° |
| 2026-05-05 02:34 | 27.21640 | 33.71905 | 33996 ft | 520 kts | 121° |
| 2026-05-05 02:35 | 27.18179 | 33.79036 | 33996 ft | 521 kts | 118° |
| 2026-05-05 02:35 | 27.15152 | 33.86430 | 33997 ft | 521 kts | 114° |
| 2026-05-05 02:36 | 27.12398 | 33.93969 | 33996 ft | 522 kts | 112° |
| 2026-05-05 02:36 | 27.09762 | 34.01557 | 33996 ft | 522 kts | 112° |
| 2026-05-05 02:37 | 27.07172 | 34.09111 | 33996 ft | 522 kts | 112° |
| 2026-05-05 02:37 | 27.04554 | 34.16696 | 33996 ft | 522 kts | 112° |
| 2026-05-05 02:38 | 27.01894 | 34.24263 | 33996 ft | 522 kts | 112° |
| 2026-05-05 02:38 | 26.99193 | 34.31822 | 33996 ft | 522 kts | 113° |
| 2026-05-05 02:39 | 26.96494 | 34.39319 | 33996 ft | 522 kts | 113° |
| 2026-05-05 02:39 | 26.93774 | 34.46847 | 33996 ft | 522 kts | 113° |
| 2026-05-05 02:40 | 26.91047 | 34.54380 | 33996 ft | 522 kts | 113° |
| 2026-05-05 02:40 | 26.88317 | 34.61912 | 33996 ft | 522 kts | 113° |
| 2026-05-05 02:41 | 26.85602 | 34.69390 | 33996 ft | 522 kts | 113° |
| 2026-05-05 02:41 | 26.82867 | 34.76913 | 33996 ft | 522 kts | 113° |
| 2026-05-05 02:42 | 26.80129 | 34.84433 | 33996 ft | 522 kts | 113° |
| 2026-05-05 02:42 | 26.77388 | 34.91950 | 33996 ft | 522 kts | 113° |
| 2026-05-05 02:43 | 26.74663 | 34.99411 | 33996 ft | 522 kts | 113° |
| 2026-05-05 02:43 | 26.71916 | 35.06916 | 33996 ft | 522 kts | 113° |
| 2026-05-05 02:44 | 26.69160 | 35.14434 | 33996 ft | 522 kts | 113° |
| 2026-05-05 02:44 | 26.66406 | 35.21931 | 33996 ft | 522 kts | 113° |
| 2026-05-05 02:45 | 26.63663 | 35.29383 | 33996 ft | 522 kts | 113° |
| 2026-05-05 02:45 | 26.60902 | 35.36873 | 33996 ft | 522 kts | 113° |
| 2026-05-05 02:46 | 26.58133 | 35.44367 | 33996 ft | 521 kts | 114° |
| 2026-05-05 02:46 | 26.55335 | 35.51838 | 33996 ft | 522 kts | 114° |
| 2026-05-05 02:47 | 26.52505 | 35.59296 | 33996 ft | 521 kts | 114° |
| 2026-05-05 02:47 | 26.49661 | 35.66743 | 33996 ft | 521 kts | 114° |
| 2026-05-05 02:48 | 26.46826 | 35.74138 | 33996 ft | 521 kts | 114° |
| 2026-05-05 02:48 | 26.43969 | 35.81574 | 33996 ft | 521 kts | 114° |
| 2026-05-05 02:49 | 26.41112 | 35.89001 | 33996 ft | 521 kts | 114° |
| 2026-05-05 02:49 | 26.38244 | 35.96442 | 33996 ft | 521 kts | 114° |
| 2026-05-05 02:50 | 26.35396 | 36.03822 | 33996 ft | 521 kts | 114° |
| 2026-05-05 02:50 | 26.32527 | 36.11246 | 33996 ft | 521 kts | 114° |
| 2026-05-05 02:51 | 26.29653 | 36.18668 | 33996 ft | 521 kts | 114° |
| 2026-05-05 02:51 | 26.26781 | 36.26074 | 33996 ft | 521 kts | 114° |
| 2026-05-05 02:52 | 26.23920 | 36.33441 | 33996 ft | 521 kts | 114° |
| 2026-05-05 02:52 | 26.21034 | 36.40857 | 33996 ft | 521 kts | 114° |
| 2026-05-05 02:53 | 26.18370 | 36.48358 | 33992 ft | 522 kts | 104° |
| 2026-05-05 02:53 | 26.17644 | 36.56375 | 34001 ft | 523 kts | 89° |
| 2026-05-05 02:54 | 26.18148 | 36.64459 | 33999 ft | 524 kts | 83° |
| 2026-05-05 02:54 | 26.19108 | 36.72446 | 33996 ft | 524 kts | 81° |
| 2026-05-05 02:55 | 26.20197 | 36.80460 | 33996 ft | 523 kts | 81° |
| 2026-05-05 02:55 | 26.21273 | 36.88473 | 33996 ft | 523 kts | 81° |
| 2026-05-05 02:56 | 26.22289 | 36.96499 | 33996 ft | 523 kts | 82° |
| 2026-05-05 02:56 | 26.23231 | 37.04469 | 33996 ft | 523 kts | 82° |
| 2026-05-05 02:57 | 26.24124 | 37.12516 | 33996 ft | 523 kts | 83° |
| 2026-05-05 02:57 | 26.24972 | 37.20580 | 33996 ft | 523 kts | 83° |
| 2026-05-05 02:58 | 26.25786 | 37.28623 | 33996 ft | 523 kts | 83° |
| 2026-05-05 02:58 | 26.26577 | 37.36690 | 33996 ft | 523 kts | 83° |
| 2026-05-05 02:59 | 26.27347 | 37.44693 | 33996 ft | 523 kts | 83° |
| 2026-05-05 02:59 | 26.28111 | 37.52768 | 33996 ft | 523 kts | 84° |
| 2026-05-05 03:00 | 26.28865 | 37.60826 | 33996 ft | 523 kts | 84° |
| 2026-05-05 03:00 | 26.29609 | 37.68847 | 33996 ft | 523 kts | 84° |
| 2026-05-05 03:01 | 26.30351 | 37.76907 | 33996 ft | 523 kts | 84° |
| 2026-05-05 03:01 | 26.31095 | 37.84976 | 33996 ft | 523 kts | 84° |
| 2026-05-05 03:02 | 26.31837 | 37.93046 | 33996 ft | 523 kts | 84° |
| 2026-05-05 03:02 | 26.32575 | 38.01115 | 33996 ft | 523 kts | 84° |
| 2026-05-05 03:03 | 26.33303 | 38.09147 | 33996 ft | 523 kts | 84° |
| 2026-05-05 03:03 | 26.34029 | 38.17220 | 33996 ft | 523 kts | 84° |
| 2026-05-05 03:04 | 26.34748 | 38.25288 | 33996 ft | 523 kts | 84° |
| 2026-05-05 03:04 | 26.35467 | 38.33364 | 33996 ft | 523 kts | 84° |
| 2026-05-05 03:05 | 26.36176 | 38.41383 | 33996 ft | 523 kts | 84° |
| 2026-05-05 03:05 | 26.36886 | 38.49469 | 33996 ft | 523 kts | 84° |
| 2026-05-05 03:06 | 26.37589 | 38.57545 | 33996 ft | 523 kts | 84° |
| 2026-05-05 03:06 | 26.38288 | 38.65623 | 33996 ft | 523 kts | 84° |
| 2026-05-05 03:07 | 26.38982 | 38.73704 | 33996 ft | 523 kts | 84° |
| 2026-05-05 03:07 | 26.39666 | 38.81730 | 33996 ft | 523 kts | 84° |
| 2026-05-05 03:08 | 26.40349 | 38.89808 | 33996 ft | 523 kts | 84° |
| 2026-05-05 03:08 | 26.41028 | 38.97895 | 33996 ft | 523 kts | 84° |
| 2026-05-05 03:09 | 26.41702 | 39.05981 | 33996 ft | 523 kts | 84° |
| 2026-05-05 03:09 | 26.42366 | 39.14007 | 33996 ft | 523 kts | 84° |
| 2026-05-05 03:10 | 26.43029 | 39.22091 | 33996 ft | 523 kts | 84° |
| 2026-05-05 03:10 | 26.43600 | 39.30197 | 33996 ft | 524 kts | 86° |
| 2026-05-05 03:11 | 26.44063 | 39.38289 | 33996 ft | 524 kts | 86° |
| 2026-05-05 03:11 | 26.44479 | 39.46410 | 33996 ft | 524 kts | 86° |
| 2026-05-05 03:12 | 26.44870 | 39.54464 | 33996 ft | 524 kts | 86° |
| 2026-05-05 03:12 | 26.45256 | 39.62579 | 33996 ft | 524 kts | 86° |
| 2026-05-05 03:13 | 26.45638 | 39.70687 | 33996 ft | 523 kts | 87° |
| 2026-05-05 03:13 | 26.46018 | 39.78801 | 33996 ft | 523 kts | 87° |
| 2026-05-05 03:14 | 26.46393 | 39.86861 | 33996 ft | 524 kts | 87° |
| 2026-05-05 03:14 | 26.46768 | 39.94982 | 33996 ft | 524 kts | 87° |
| 2026-05-05 03:15 | 26.47140 | 40.03094 | 33996 ft | 524 kts | 87° |
| 2026-05-05 03:15 | 26.47508 | 40.11199 | 33996 ft | 524 kts | 87° |
| 2026-05-05 03:16 | 26.47871 | 40.19268 | 33996 ft | 524 kts | 87° |
| 2026-05-05 03:16 | 26.48231 | 40.27374 | 33996 ft | 524 kts | 87° |
| 2026-05-05 03:17 | 26.48586 | 40.35489 | 33996 ft | 524 kts | 87° |
| 2026-05-05 03:17 | 26.48937 | 40.43611 | 33996 ft | 524 kts | 87° |
| 2026-05-05 03:18 | 26.49283 | 40.51734 | 33996 ft | 524 kts | 87° |
| 2026-05-05 03:18 | 26.49621 | 40.59791 | 33996 ft | 523 kts | 87° |
| 2026-05-05 03:19 | 26.50128 | 40.71973 | 33996 ft | 524 kts | 87° |
| 2026-05-05 03:19 | 26.50460 | 40.80082 | 33996 ft | 524 kts | 87° |
| 2026-05-05 03:20 | 26.50787 | 40.88207 | 33996 ft | 524 kts | 87° |
| 2026-05-05 03:20 | 26.51105 | 40.96269 | 33996 ft | 524 kts | 87° |
| 2026-05-05 03:21 | 26.51295 | 41.04399 | 33996 ft | 523 kts | 90° |
| 2026-05-05 03:21 | 26.51030 | 41.12511 | 33997 ft | 524 kts | 93° |
| 2026-05-05 03:22 | 26.50533 | 41.20624 | 33996 ft | 524 kts | 95° |
| 2026-05-05 03:22 | 26.49948 | 41.28663 | 33996 ft | 523 kts | 95° |
| 2026-05-05 03:23 | 26.49328 | 41.36754 | 33996 ft | 523 kts | 95° |
| 2026-05-05 03:23 | 26.48699 | 41.44867 | 33996 ft | 523 kts | 95° |
| 2026-05-05 03:24 | 26.48075 | 41.52952 | 33996 ft | 523 kts | 95° |
| 2026-05-05 03:24 | 26.47454 | 41.61053 | 33996 ft | 523 kts | 95° |
| 2026-05-05 03:25 | 26.46842 | 41.69085 | 33996 ft | 523 kts | 95° |
| 2026-05-05 03:25 | 26.46226 | 41.77190 | 33996 ft | 523 kts | 95° |
| 2026-05-05 03:26 | 26.45612 | 41.85272 | 33996 ft | 523 kts | 95° |
| 2026-05-05 03:26 | 26.44995 | 41.93380 | 33996 ft | 523 kts | 95° |
| 2026-05-05 03:27 | 26.44381 | 42.01408 | 33996 ft | 523 kts | 95° |
| 2026-05-05 03:27 | 26.43760 | 42.09503 | 33996 ft | 523 kts | 95° |
| 2026-05-05 03:28 | 26.43134 | 42.17593 | 33996 ft | 523 kts | 95° |
| 2026-05-05 03:28 | 26.42505 | 42.25683 | 33996 ft | 523 kts | 95° |
| 2026-05-05 03:29 | 26.41877 | 42.33713 | 33996 ft | 523 kts | 95° |
| 2026-05-05 03:29 | 26.41238 | 42.41812 | 33996 ft | 523 kts | 95° |
| 2026-05-05 03:30 | 26.40597 | 42.49895 | 33996 ft | 523 kts | 95° |
| 2026-05-05 03:30 | 26.39951 | 42.57976 | 33996 ft | 523 kts | 95° |
| 2026-05-05 03:31 | 26.39304 | 42.66010 | 33996 ft | 523 kts | 95° |
| 2026-05-05 03:31 | 26.38648 | 42.74097 | 33996 ft | 523 kts | 95° |
| 2026-05-05 03:32 | 26.37987 | 42.82180 | 33996 ft | 523 kts | 95° |
| 2026-05-05 03:32 | 26.37321 | 42.90269 | 33996 ft | 523 kts | 95° |
| 2026-05-05 03:33 | 26.36655 | 42.98297 | 33996 ft | 523 kts | 95° |
| 2026-05-05 03:33 | 26.35981 | 43.06379 | 33996 ft | 523 kts | 95° |
| 2026-05-05 03:34 | 26.35305 | 43.14447 | 33996 ft | 523 kts | 95° |
| 2026-05-05 03:34 | 26.34623 | 43.22535 | 33996 ft | 523 kts | 96° |
| 2026-05-05 03:35 | 26.33937 | 43.30602 | 33996 ft | 523 kts | 96° |
| 2026-05-05 03:35 | 26.33250 | 43.38634 | 33996 ft | 523 kts | 96° |
| 2026-05-05 03:36 | 26.32554 | 43.46715 | 33996 ft | 523 kts | 96° |
| 2026-05-05 03:36 | 26.31853 | 43.54779 | 33996 ft | 523 kts | 96° |
| 2026-05-05 03:37 | 26.31266 | 43.61495 | 33996 ft | 523 kts | 96° |
| 2026-05-05 03:37 | 26.30440 | 43.70876 | 33996 ft | 523 kts | 96° |
| 2026-05-05 03:38 | 26.29875 | 43.78959 | 33997 ft | 523 kts | 92° |
| 2026-05-05 03:38 | 26.29721 | 43.85703 | 33997 ft | 524 kts | 90° |
| 2026-05-05 03:39 | 26.29731 | 43.93811 | 33996 ft | 524 kts | 89° |
| 2026-05-05 03:39 | 26.29848 | 44.03247 | 33996 ft | 524 kts | 89° |
| 2026-05-05 03:40 | 26.29948 | 44.10033 | 33996 ft | 524 kts | 89° |
| 2026-05-05 03:40 | 26.30059 | 44.18093 | 33996 ft | 524 kts | 89° |
| 2026-05-05 03:41 | 26.30151 | 44.26213 | 33996 ft | 524 kts | 89° |
| 2026-05-05 03:41 | 26.30222 | 44.34326 | 33996 ft | 524 kts | 89° |
| 2026-05-05 03:42 | 26.30274 | 44.42439 | 33996 ft | 524 kts | 89° |
| 2026-05-05 03:42 | 26.30428 | 44.50480 | 33994 ft | 523 kts | 84° |
| 2026-05-05 03:43 | 26.31861 | 44.58422 | 33999 ft | 522 kts | 73° |
| 2026-05-05 03:43 | 26.34160 | 44.66096 | 33998 ft | 522 kts | 69° |
| 2026-05-05 03:44 | 26.36805 | 44.73626 | 33996 ft | 522 kts | 67° |
| 2026-05-05 03:44 | 26.39552 | 44.81124 | 33996 ft | 522 kts | 66° |
| 2026-05-05 03:45 | 26.42262 | 44.88573 | 33996 ft | 522 kts | 67° |
| 2026-05-05 03:45 | 26.44927 | 44.96093 | 33996 ft | 522 kts | 68° |
| 2026-05-05 03:46 | 26.47522 | 45.03652 | 33996 ft | 522 kts | 68° |
| 2026-05-05 03:46 | 26.50060 | 45.11252 | 33996 ft | 522 kts | 69° |
| 2026-05-05 03:47 | 26.52559 | 45.18803 | 33996 ft | 522 kts | 69° |
| 2026-05-05 03:47 | 26.55064 | 45.26409 | 33996 ft | 522 kts | 69° |
| 2026-05-05 03:48 | 26.57563 | 45.34018 | 33996 ft | 522 kts | 69° |
| 2026-05-05 03:48 | 26.60060 | 45.41637 | 33996 ft | 522 kts | 69° |
| 2026-05-05 03:49 | 26.62553 | 45.49254 | 33996 ft | 522 kts | 69° |
| 2026-05-05 03:49 | 26.65027 | 45.56826 | 33996 ft | 522 kts | 69° |
| 2026-05-05 03:50 | 26.67512 | 45.64444 | 33996 ft | 522 kts | 69° |
| 2026-05-05 03:50 | 26.69997 | 45.72077 | 33996 ft | 522 kts | 69° |
| 2026-05-05 03:51 | 26.72473 | 45.79699 | 33996 ft | 522 kts | 69° |
| 2026-05-05 03:51 | 26.74936 | 45.87291 | 33996 ft | 522 kts | 69° |
| 2026-05-05 03:52 | 26.77407 | 45.94927 | 33996 ft | 522 kts | 69° |
| 2026-05-05 03:52 | 26.79874 | 46.02566 | 33996 ft | 522 kts | 69° |
| 2026-05-05 03:53 | 26.82335 | 46.10204 | 33996 ft | 522 kts | 69° |
| 2026-05-05 03:53 | 26.84779 | 46.17809 | 33996 ft | 522 kts | 69° |
| 2026-05-05 03:54 | 26.87232 | 46.25456 | 33996 ft | 522 kts | 69° |
| 2026-05-05 03:54 | 26.89678 | 46.33104 | 33996 ft | 522 kts | 69° |
| 2026-05-05 03:55 | 26.91763 | 46.40893 | 33997 ft | 523 kts | 77° |
| 2026-05-05 03:55 | 26.92998 | 46.48925 | 33998 ft | 523 kts | 82° |
| 2026-05-05 03:56 | 26.93834 | 46.56976 | 33996 ft | 524 kts | 84° |
| 2026-05-05 03:56 | 26.94523 | 46.65092 | 33996 ft | 524 kts | 84° |
| 2026-05-05 03:57 | 26.95169 | 46.73220 | 33996 ft | 523 kts | 84° |
| 2026-05-05 03:57 | 26.95816 | 46.81352 | 33996 ft | 523 kts | 84° |
| 2026-05-05 03:58 | 26.96478 | 46.89474 | 33996 ft | 523 kts | 84° |
| 2026-05-05 03:58 | 26.97150 | 46.97531 | 33996 ft | 523 kts | 84° |
| 2026-05-05 03:59 | 26.97842 | 47.05656 | 33996 ft | 523 kts | 84° |
| 2026-05-05 03:59 | 26.98542 | 47.13789 | 33996 ft | 523 kts | 84° |
| 2026-05-05 04:00 | 26.99246 | 47.21898 | 33996 ft | 523 kts | 84° |
| 2026-05-05 04:00 | 26.99949 | 47.29970 | 33996 ft | 523 kts | 84° |
| 2026-05-05 04:01 | 27.00656 | 47.38097 | 33996 ft | 523 kts | 84° |
| 2026-05-05 04:01 | 27.01360 | 47.46219 | 33996 ft | 523 kts | 84° |
| 2026-05-05 04:02 | 27.02061 | 47.54340 | 33996 ft | 523 kts | 84° |
| 2026-05-05 04:02 | 27.02753 | 47.62413 | 33996 ft | 523 kts | 84° |
| 2026-05-05 04:03 | 27.03446 | 47.70543 | 33996 ft | 523 kts | 84° |
| 2026-05-05 04:03 | 27.04134 | 47.78662 | 33996 ft | 523 kts | 84° |
| 2026-05-05 04:04 | 27.04817 | 47.86796 | 33996 ft | 523 kts | 84° |
| 2026-05-05 04:04 | 27.05472 | 47.94916 | 33996 ft | 523 kts | 85° |
| 2026-05-05 04:05 | 27.05984 | 48.03014 | 33996 ft | 524 kts | 86° |
| 2026-05-05 04:05 | 27.06411 | 48.11166 | 33996 ft | 524 kts | 86° |
| 2026-05-05 04:06 | 27.06798 | 48.19330 | 33996 ft | 523 kts | 87° |
| 2026-05-05 04:06 | 27.07169 | 48.27489 | 33996 ft | 523 kts | 87° |
| 2026-05-05 04:07 | 27.07530 | 48.35585 | 33996 ft | 523 kts | 87° |
| 2026-05-05 04:07 | 27.07893 | 48.43741 | 33996 ft | 523 kts | 87° |
| 2026-05-05 04:08 | 27.08254 | 48.51897 | 33996 ft | 523 kts | 87° |
| 2026-05-05 04:08 | 27.08614 | 48.60058 | 33996 ft | 523 kts | 87° |
| 2026-05-05 04:09 | 27.08972 | 48.68214 | 33996 ft | 523 kts | 87° |
| 2026-05-05 04:09 | 27.09324 | 48.76329 | 33996 ft | 523 kts | 87° |
| 2026-05-05 04:10 | 27.09669 | 48.84480 | 33996 ft | 523 kts | 88° |
| 2026-05-05 04:10 | 27.09718 | 48.92647 | 33997 ft | 524 kts | 91° |
| 2026-05-05 04:11 | 27.09468 | 49.00811 | 33996 ft | 524 kts | 92° |
| 2026-05-05 04:11 | 27.09080 | 49.08923 | 33996 ft | 524 kts | 94° |
| 2026-05-05 04:12 | 27.08635 | 49.17066 | 33996 ft | 523 kts | 94° |
| 2026-05-05 04:12 | 27.08180 | 49.25229 | 33996 ft | 523 kts | 94° |
| 2026-05-05 04:13 | 27.07740 | 49.33384 | 33996 ft | 523 kts | 93° |
| 2026-05-05 04:13 | 27.07329 | 49.41536 | 33996 ft | 523 kts | 93° |
| 2026-05-05 04:14 | 27.06937 | 49.49624 | 33996 ft | 523 kts | 93° |
| 2026-05-05 04:14 | 27.06543 | 49.57778 | 33996 ft | 523 kts | 93° |
| 2026-05-05 04:15 | 27.06145 | 49.65942 | 33996 ft | 523 kts | 93° |
| 2026-05-05 04:15 | 27.05741 | 49.74102 | 33996 ft | 523 kts | 93° |
| 2026-05-05 04:16 | 27.05333 | 49.82192 | 33996 ft | 523 kts | 93° |
| 2026-05-05 04:16 | 27.04914 | 49.90341 | 33996 ft | 523 kts | 93° |
| 2026-05-05 04:17 | 27.04588 | 49.98498 | 33997 ft | 523 kts | 91° |
| 2026-05-05 04:17 | 27.04525 | 50.06663 | 33996 ft | 523 kts | 89° |
| 2026-05-05 04:18 | 27.04618 | 50.14837 | 33996 ft | 524 kts | 89° |
| 2026-05-05 04:18 | 27.04738 | 50.22934 | 33996 ft | 524 kts | 89° |
| 2026-05-05 04:19 | 27.04855 | 50.31102 | 33996 ft | 524 kts | 89° |
| 2026-05-05 04:19 | 27.04373 | 50.39225 | 33997 ft | 523 kts | 102° |
| 2026-05-05 04:20 | 27.02257 | 50.47017 | 33999 ft | 522 kts | 113° |
| 2026-05-05 04:20 | 26.99170 | 50.54298 | 33998 ft | 521 kts | 118° |
| 2026-05-05 04:21 | 26.95982 | 50.61584 | 33996 ft | 521 kts | 116° |
| 2026-05-05 04:21 | 26.92948 | 50.68971 | 33996 ft | 521 kts | 115° |
| 2026-05-05 04:22 | 26.90047 | 50.76406 | 33996 ft | 521 kts | 114° |
| 2026-05-05 04:22 | 26.87211 | 50.83886 | 33996 ft | 522 kts | 114° |
| 2026-05-05 04:23 | 26.84383 | 50.91368 | 33996 ft | 521 kts | 114° |
| 2026-05-05 04:23 | 26.81569 | 50.98788 | 33996 ft | 521 kts | 114° |
| 2026-05-05 04:24 | 26.78734 | 51.06262 | 33996 ft | 521 kts | 113° |
| 2026-05-05 04:25 | 26.74806 | 51.17626 | 33996 ft | 522 kts | 111° |
| 2026-05-05 04:25 | 26.72357 | 51.25214 | 33996 ft | 522 kts | 110° |
| 2026-05-05 04:26 | 26.69940 | 51.32859 | 33996 ft | 522 kts | 110° |
| 2026-05-05 04:26 | 26.67526 | 51.40523 | 33996 ft | 522 kts | 110° |
| 2026-05-05 04:27 | 26.65108 | 51.48124 | 33996 ft | 522 kts | 110° |
| 2026-05-05 04:27 | 26.62656 | 51.55761 | 33996 ft | 522 kts | 111° |
| 2026-05-05 04:28 | 26.60193 | 51.63388 | 33996 ft | 522 kts | 111° |
| 2026-05-05 04:28 | 26.57724 | 51.71011 | 33996 ft | 522 kts | 111° |
| 2026-05-05 04:29 | 26.55254 | 51.78638 | 33996 ft | 522 kts | 111° |
| 2026-05-05 04:29 | 26.52798 | 51.86208 | 33996 ft | 522 kts | 111° |
| 2026-05-05 04:30 | 26.50302 | 51.93803 | 33996 ft | 522 kts | 111° |
| 2026-05-05 04:30 | 26.47777 | 52.01409 | 33996 ft | 522 kts | 111° |
| 2026-05-05 04:31 | 26.45242 | 52.08998 | 33996 ft | 522 kts | 111° |
| 2026-05-05 04:31 | 26.42717 | 52.16540 | 33996 ft | 522 kts | 111° |
| 2026-05-05 04:32 | 26.40177 | 52.24120 | 33996 ft | 522 kts | 111° |
| 2026-05-05 04:32 | 26.37634 | 52.31701 | 33996 ft | 522 kts | 111° |
| 2026-05-05 04:33 | 26.35027 | 52.39255 | 33996 ft | 522 kts | 113° |
| 2026-05-05 04:33 | 26.32273 | 52.46716 | 33996 ft | 522 kts | 114° |
| 2026-05-05 04:34 | 26.29441 | 52.54110 | 33996 ft | 521 kts | 114° |
| 2026-05-05 04:34 | 26.26555 | 52.61513 | 33996 ft | 521 kts | 115° |
| 2026-05-05 04:35 | 26.23670 | 52.68912 | 33996 ft | 521 kts | 114° |
| 2026-05-05 04:35 | 26.20805 | 52.76346 | 33996 ft | 521 kts | 114° |
| 2026-05-05 04:36 | 26.17976 | 52.83724 | 33996 ft | 521 kts | 114° |
| 2026-05-05 04:36 | 26.15131 | 52.91152 | 33996 ft | 521 kts | 114° |
| 2026-05-05 04:37 | 26.12288 | 52.98566 | 33996 ft | 521 kts | 114° |
| 2026-05-05 04:37 | 26.09473 | 53.05995 | 33996 ft | 522 kts | 114° |
| 2026-05-05 04:38 | 26.06699 | 53.13461 | 33996 ft | 522 kts | 113° |
| 2026-05-05 04:38 | 26.03968 | 53.20876 | 33996 ft | 522 kts | 113° |
| 2026-05-05 04:39 | 26.01228 | 53.28335 | 33996 ft | 522 kts | 113° |
| 2026-05-05 04:39 | 25.98483 | 53.35798 | 33996 ft | 522 kts | 113° |
| 2026-05-05 04:40 | 25.95749 | 53.43210 | 33996 ft | 522 kts | 113° |
| 2026-05-05 04:40 | 25.93022 | 53.50688 | 33996 ft | 522 kts | 112° |
| 2026-05-05 04:41 | 25.90383 | 53.58184 | 33996 ft | 522 kts | 112° |
| 2026-05-05 04:41 | 25.87788 | 53.65721 | 33996 ft | 522 kts | 111° |
| 2026-05-05 04:42 | 25.85211 | 53.73249 | 33996 ft | 522 kts | 112° |
| 2026-05-05 04:42 | 25.82634 | 53.80719 | 33996 ft | 522 kts | 112° |
| 2026-05-05 04:43 | 25.80029 | 53.88225 | 33996 ft | 522 kts | 112° |
| 2026-05-05 04:43 | 25.77413 | 53.95735 | 33996 ft | 522 kts | 112° |
| 2026-05-05 04:44 | 25.74888 | 54.03237 | 33996 ft | 522 kts | 111° |
| 2026-05-05 04:44 | 25.72485 | 54.10820 | 33996 ft | 522 kts | 110° |
| 2026-05-05 04:45 | 25.70142 | 54.18447 | 33996 ft | 522 kts | 109° |
| 2026-05-05 04:45 | 25.67823 | 54.26086 | 33996 ft | 522 kts | 109° |
| 2026-05-05 04:46 | 25.65519 | 54.33661 | 33996 ft | 522 kts | 109° |
| 2026-05-05 04:46 | 25.63177 | 54.41265 | 33996 ft | 522 kts | 110° |
| 2026-05-05 04:47 | 25.60812 | 54.48875 | 33996 ft | 522 kts | 110° |
| 2026-05-05 04:47 | 25.58503 | 54.56491 | 33993 ft | 522 kts | 105° |
| 2026-05-05 04:48 | 25.57734 | 54.64486 | 34000 ft | 523 kts | 89° |
| 2026-05-05 04:48 | 25.58440 | 54.72433 | 33999 ft | 523 kts | 80° |
| 2026-05-05 04:49 | 25.59885 | 54.80330 | 33997 ft | 523 kts | 76° |
| 2026-05-05 04:49 | 25.60804 | 54.88283 | 33990 ft | 522 kts | 97° |
| 2026-05-05 04:49 | 25.59854 | 54.92149 | 33994 ft | 520 kts | 115° |
| 2026-05-05 04:50 | 25.57928 | 54.95486 | 33997 ft | 515 kts | 133° |
| 2026-05-05 04:50 | 25.55248 | 54.97979 | 33997 ft | 509 kts | 152° |
| 2026-05-05 04:50 | 25.52008 | 54.99458 | 33996 ft | 501 kts | 169° |
| 2026-05-05 04:50 | 25.48576 | 54.99751 | 33996 ft | 493 kts | 188° |
| 2026-05-05 04:51 | 25.45276 | 54.98848 | 33996 ft | 485 kts | 206° |
| 2026-05-05 04:51 | 25.42428 | 54.96899 | 34002 ft | 479 kts | 221° |
| 2026-05-05 04:51 | 25.39977 | 54.94424 | 34007 ft | 478 kts | 227° |
| 2026-05-05 04:52 | 25.34922 | 54.89636 | 33991 ft | 485 kts | 210° |
| 2026-05-05 04:52 | 25.31756 | 54.88482 | 33994 ft | 492 kts | 192° |
| 2026-05-05 04:52 | 25.28322 | 54.88477 | 33996 ft | 500 kts | 173° |
| 2026-05-05 04:52 | 25.24995 | 54.89670 | 33997 ft | 507 kts | 155° |
| 2026-05-05 04:53 | 25.22135 | 54.91947 | 33996 ft | 513 kts | 137° |
| 2026-05-05 04:53 | 25.20002 | 54.95115 | 33996 ft | 518 kts | 119° |
| 2026-05-05 04:53 | 25.18819 | 54.98875 | 33996 ft | 520 kts | 101° |
| 2026-05-05 04:53 | 25.18704 | 55.02802 | 33996 ft | 520 kts | 82° |
| 2026-05-05 04:54 | 25.19660 | 55.06627 | 33996 ft | 518 kts | 64° |
| 2026-05-05 04:54 | 25.21591 | 55.09934 | 33996 ft | 514 kts | 46° |
| 2026-05-05 04:54 | 25.24331 | 55.12435 | 33996 ft | 508 kts | 28° |
| 2026-05-05 04:54 | 25.27576 | 55.13866 | 33996 ft | 500 kts | 9° |
| 2026-05-05 04:55 | 25.31009 | 55.14113 | 33996 ft | 492 kts | 351° |
| 2026-05-05 04:55 | 25.34276 | 55.13174 | 33996 ft | 485 kts | 333° |
| 2026-05-05 04:55 | 25.37069 | 55.11154 | 33996 ft | 478 kts | 315° |
| 2026-05-05 04:55 | 25.39092 | 55.08283 | 33996 ft | 473 kts | 296° |
| 2026-05-05 04:56 | 25.40144 | 55.04871 | 33996 ft | 471 kts | 278° |
| 2026-05-05 04:56 | 25.40506 | 54.97681 | 34001 ft | 471 kts | 275° |
| 2026-05-05 04:56 | 25.41228 | 54.94159 | 33992 ft | 473 kts | 291° |
| 2026-05-05 04:57 | 25.42952 | 54.91058 | 33995 ft | 478 kts | 309° |
| 2026-05-05 04:57 | 25.45524 | 54.88714 | 33997 ft | 484 kts | 328° |
| 2026-05-05 04:57 | 25.48667 | 54.87391 | 33997 ft | 491 kts | 346° |
| 2026-05-05 04:57 | 25.52100 | 54.87230 | 33996 ft | 498 kts | 4° |
| 2026-05-05 04:58 | 25.55437 | 54.88266 | 33996 ft | 506 kts | 22° |
| 2026-05-05 04:58 | 25.58349 | 54.90392 | 33996 ft | 512 kts | 40° |
| 2026-05-05 04:58 | 25.60598 | 54.93460 | 33996 ft | 517 kts | 58° |
| 2026-05-05 04:58 | 25.61919 | 54.97162 | 33996 ft | 520 kts | 77° |
| 2026-05-05 04:59 | 25.62182 | 55.01139 | 33996 ft | 520 kts | 95° |
| 2026-05-05 04:59 | 25.61358 | 55.05031 | 33996 ft | 519 kts | 113° |
| 2026-05-05 04:59 | 25.59537 | 55.08435 | 33996 ft | 514 kts | 131° |
| 2026-05-05 04:59 | 25.56888 | 55.11057 | 33996 ft | 509 kts | 150° |
| 2026-05-05 05:00 | 25.53698 | 55.12637 | 33999 ft | 501 kts | 167° |
| 2026-05-05 05:00 | 25.50284 | 55.13274 | 34005 ft | 497 kts | 179° |
| 2026-05-05 05:00 | 25.46879 | 55.13242 | 34004 ft | 494 kts | 187° |
| 2026-05-05 05:01 | 25.40143 | 55.11939 | 33997 ft | 493 kts | 190° |
| 2026-05-05 05:01 | 25.36696 | 55.12008 | 33992 ft | 501 kts | 172° |
| 2026-05-05 05:01 | 25.33389 | 55.13269 | 33995 ft | 508 kts | 154° |
| 2026-05-05 05:01 | 25.30550 | 55.15614 | 33997 ft | 514 kts | 136° |
| 2026-05-05 05:02 | 25.28467 | 55.18821 | 33997 ft | 518 kts | 118° |
| 2026-05-05 05:02 | 25.27203 | 55.22541 | 34005 ft | 520 kts | 106° |
| 2026-05-05 05:02 | 25.26483 | 55.26429 | 34005 ft | 522 kts | 99° |
| 2026-05-05 05:03 | 25.25680 | 55.34393 | 33999 ft | 523 kts | 96° |
| 2026-05-05 05:03 | 25.23954 | 55.42156 | 33998 ft | 521 kts | 114° |
| 2026-05-05 05:04 | 25.20409 | 55.49039 | 34001 ft | 519 kts | 126° |
| 2026-05-05 05:04 | 25.16075 | 55.55393 | 33998 ft | 518 kts | 130° |
| 2026-05-05 05:05 | 25.11485 | 55.61518 | 33993 ft | 516 kts | 135° |
| 2026-05-05 05:05 | 25.08724 | 55.63972 | 33990 ft | 510 kts | 153° |
| 2026-05-05 05:05 | 25.05447 | 55.65376 | 33994 ft | 502 kts | 171° |
| 2026-05-05 05:05 | 25.02005 | 55.65591 | 33997 ft | 494 kts | 189° |
| 2026-05-05 05:06 | 24.98737 | 55.64626 | 33997 ft | 486 kts | 207° |
| 2026-05-05 05:06 | 24.95943 | 55.62582 | 33996 ft | 479 kts | 225° |
| 2026-05-05 05:06 | 24.93942 | 55.59713 | 33996 ft | 474 kts | 244° |
| 2026-05-05 05:06 | 24.92909 | 55.56338 | 33996 ft | 471 kts | 262° |
| 2026-05-05 05:07 | 24.92934 | 55.52752 | 33996 ft | 471 kts | 280° |
| 2026-05-05 05:07 | 24.94033 | 55.49358 | 33996 ft | 474 kts | 298° |
| 2026-05-05 05:07 | 24.96092 | 55.46528 | 33996 ft | 479 kts | 316° |
| 2026-05-05 05:07 | 24.98920 | 55.44551 | 33996 ft | 485 kts | 334° |
| 2026-05-05 05:08 | 25.02206 | 55.43641 | 34000 ft | 492 kts | 351° |
| 2026-05-05 05:08 | 25.09072 | 55.44177 | 34004 ft | 502 kts | 9° |
| 2026-05-05 05:09 | 25.15710 | 55.46499 | 34000 ft | 507 kts | 19° |
| 2026-05-05 05:09 | 25.22488 | 55.47975 | 33992 ft | 494 kts | 351° |
| 2026-05-05 05:09 | 25.25760 | 55.47025 | 33996 ft | 486 kts | 333° |
| 2026-05-05 05:10 | 25.28564 | 55.44993 | 33997 ft | 480 kts | 315° |
| 2026-05-05 05:10 | 25.30592 | 55.42114 | 33996 ft | 474 kts | 296° |
| 2026-05-05 05:10 | 25.31648 | 55.38689 | 33996 ft | 472 kts | 278° |
| 2026-05-05 05:10 | 25.31641 | 55.35137 | 33999 ft | 471 kts | 262° |
| 2026-05-05 05:11 | 25.30963 | 55.31590 | 34006 ft | 471 kts | 258° |
| 2026-05-05 05:11 | 25.30291 | 55.24392 | 33999 ft | 473 kts | 270° |
| 2026-05-05 05:12 | 25.30922 | 55.17154 | 33998 ft | 474 kts | 280° |
| 2026-05-05 05:12 | 25.32332 | 55.10047 | 33993 ft | 473 kts | 276° |
| 2026-05-05 05:12 | 25.32170 | 55.06473 | 33992 ft | 473 kts | 258° |
| 2026-05-05 05:13 | 25.30950 | 55.03114 | 33995 ft | 476 kts | 240° |
| 2026-05-05 05:13 | 25.28787 | 55.00348 | 33997 ft | 481 kts | 221° |
| 2026-05-05 05:13 | 25.25892 | 54.98473 | 33996 ft | 487 kts | 203° |
| 2026-05-05 05:13 | 25.22565 | 54.97704 | 33996 ft | 495 kts | 185° |
| 2026-05-05 05:14 | 25.19137 | 54.98128 | 33996 ft | 502 kts | 167° |
| 2026-05-05 05:14 | 25.15943 | 54.99725 | 33996 ft | 509 kts | 149° |
| 2026-05-05 05:14 | 25.13307 | 55.02356 | 33996 ft | 515 kts | 130° |
| 2026-05-05 05:14 | 25.11416 | 55.05710 | 34005 ft | 517 kts | 118° |
| 2026-05-05 05:15 | 25.09729 | 55.09156 | 34001 ft | 517 kts | 123° |
| 2026-05-05 05:15 | 25.07422 | 55.12157 | 33993 ft | 513 kts | 141° |
| 2026-05-05 05:15 | 25.04443 | 55.14222 | 33996 ft | 506 kts | 160° |
| 2026-05-05 05:15 | 25.01060 | 55.15173 | 33997 ft | 498 kts | 178° |
| 2026-05-05 05:16 | 24.97652 | 55.14924 | 33997 ft | 490 kts | 196° |
| 2026-05-05 05:16 | 24.94527 | 55.13519 | 33996 ft | 483 kts | 214° |
| 2026-05-05 05:16 | 24.92020 | 55.11125 | 33996 ft | 477 kts | 232° |
| 2026-05-05 05:16 | 24.90368 | 55.07988 | 33996 ft | 472 kts | 251° |
| 2026-05-05 05:17 | 24.89750 | 55.04512 | 33996 ft | 471 kts | 269° |
| 2026-05-05 05:17 | 24.90203 | 55.00958 | 33996 ft | 472 kts | 287° |
| 2026-05-05 05:17 | 24.91701 | 54.97742 | 33996 ft | 475 kts | 305° |
| 2026-05-05 05:17 | 24.94091 | 54.95215 | 33996 ft | 481 kts | 323° |
| 2026-05-05 05:18 | 24.97127 | 54.93651 | 33996 ft | 488 kts | 342° |
| 2026-05-05 05:18 | 25.00507 | 54.93219 | 33996 ft | 496 kts | 360° |
| 2026-05-05 05:18 | 25.03930 | 54.93867 | 34004 ft | 502 kts | 13° |
| 2026-05-05 05:19 | 25.10307 | 54.97005 | 34003 ft | 510 kts | 28° |
| 2026-05-05 05:19 | 25.16114 | 55.01512 | 33999 ft | 513 kts | 37° |
| 2026-05-05 05:20 | 25.22285 | 55.05171 | 33992 ft | 502 kts | 8° |
| 2026-05-05 05:20 | 25.25736 | 55.05352 | 33996 ft | 494 kts | 350° |
| 2026-05-05 05:20 | 25.29009 | 55.04343 | 33997 ft | 486 kts | 332° |
| 2026-05-05 05:20 | 25.31761 | 55.02283 | 33996 ft | 479 kts | 314° |
| 2026-05-05 05:21 | 25.33753 | 54.99365 | 33996 ft | 474 kts | 296° |
| 2026-05-05 05:21 | 25.34761 | 54.95924 | 33996 ft | 471 kts | 277° |
| 2026-05-05 05:21 | 25.34691 | 54.92323 | 33996 ft | 471 kts | 259° |
| 2026-05-05 05:21 | 25.33572 | 54.88977 | 33996 ft | 474 kts | 241° |
| 2026-05-05 05:22 | 25.31482 | 54.86149 | 33996 ft | 479 kts | 223° |
| 2026-05-05 05:22 | 25.28647 | 54.84201 | 33996 ft | 486 kts | 205° |
| 2026-05-05 05:22 | 25.25354 | 54.83339 | 33996 ft | 493 kts | 187° |
| 2026-05-05 05:22 | 25.21926 | 54.83666 | 33996 ft | 501 kts | 168° |
| 2026-05-05 05:23 | 25.18694 | 54.85178 | 33996 ft | 508 kts | 150° |
| 2026-05-05 05:23 | 25.16044 | 54.87687 | 33996 ft | 514 kts | 132° |
| 2026-05-05 05:23 | 25.14128 | 54.91096 | 33996 ft | 519 kts | 114° |
| 2026-05-05 05:23 | 25.13249 | 54.94878 | 33996 ft | 520 kts | 96° |
| 2026-05-05 05:24 | 25.13430 | 54.98860 | 33996 ft | 520 kts | 77° |
| 2026-05-05 05:24 | 25.14677 | 55.02585 | 33996 ft | 517 kts | 59° |
| 2026-05-05 05:24 | 25.16854 | 55.05689 | 33996 ft | 512 kts | 41° |
| 2026-05-05 05:24 | 25.19761 | 55.07908 | 33996 ft | 506 kts | 22° |
| 2026-05-05 05:25 | 25.23083 | 55.09018 | 33996 ft | 498 kts | 5° |
| 2026-05-05 05:25 | 25.26475 | 55.08942 | 33996 ft | 491 kts | 346° |
| 2026-05-05 05:25 | 25.29646 | 55.07707 | 33996 ft | 483 kts | 328° |
| 2026-05-05 05:25 | 25.32269 | 55.05435 | 33996 ft | 477 kts | 310° |
| 2026-05-05 05:26 | 25.34054 | 55.02390 | 33996 ft | 473 kts | 292° |
| 2026-05-05 05:26 | 25.34834 | 54.98888 | 33996 ft | 471 kts | 274° |
| 2026-05-05 05:26 | 25.34528 | 54.95300 | 33996 ft | 472 kts | 255° |
| 2026-05-05 05:26 | 25.33169 | 54.92013 | 33996 ft | 475 kts | 237° |
| 2026-05-05 05:27 | 25.30883 | 54.89359 | 33996 ft | 480 kts | 219° |
| 2026-05-05 05:27 | 25.27922 | 54.87649 | 33996 ft | 487 kts | 200° |
| 2026-05-05 05:27 | 25.21196 | 54.87642 | 33996 ft | 503 kts | 164° |
| 2026-05-05 05:28 | 25.18057 | 54.89395 | 33996 ft | 510 kts | 146° |
| 2026-05-05 05:28 | 25.15534 | 54.92133 | 33996 ft | 515 kts | 128° |
| 2026-05-05 05:28 | 25.13847 | 54.95644 | 33996 ft | 519 kts | 110° |
| 2026-05-05 05:28 | 25.13191 | 54.99555 | 33996 ft | 521 kts | 91° |
| 2026-05-05 05:29 | 25.13620 | 55.03490 | 33996 ft | 520 kts | 73° |
| 2026-05-05 05:29 | 25.15074 | 55.07069 | 33996 ft | 516 kts | 55° |
| 2026-05-05 05:29 | 25.17467 | 55.10038 | 33996 ft | 511 kts | 37° |
| 2026-05-05 05:29 | 25.20455 | 55.11997 | 33996 ft | 504 kts | 19° |
| 2026-05-05 05:30 | 25.23835 | 55.12853 | 33996 ft | 497 kts | 0° |
| 2026-05-05 05:30 | 25.27237 | 55.12509 | 33996 ft | 489 kts | 342° |
| 2026-05-05 05:30 | 25.30308 | 55.11021 | 33996 ft | 482 kts | 324° |
| 2026-05-05 05:30 | 25.32759 | 55.08547 | 33996 ft | 476 kts | 306° |
| 2026-05-05 05:31 | 25.34329 | 55.05362 | 33996 ft | 472 kts | 288° |
| 2026-05-05 05:31 | 25.34863 | 55.01804 | 33996 ft | 471 kts | 269° |
| 2026-05-05 05:31 | 25.34307 | 54.98248 | 33996 ft | 472 kts | 251° |
| 2026-05-05 05:31 | 25.32725 | 54.95086 | 33996 ft | 476 kts | 233° |
| 2026-05-05 05:32 | 25.30298 | 54.92652 | 33996 ft | 482 kts | 215° |
| 2026-05-05 05:32 | 25.27179 | 54.91155 | 33996 ft | 489 kts | 197° |
| 2026-05-05 05:32 | 25.23819 | 54.90823 | 33999 ft | 496 kts | 179° |
| 2026-05-05 05:32 | 25.20384 | 54.91253 | 34006 ft | 498 kts | 176° |
| 2026-05-05 05:33 | 25.16950 | 54.91365 | 33994 ft | 493 kts | 189° |
| 2026-05-05 05:33 | 25.13673 | 54.90373 | 33994 ft | 486 kts | 207° |
| 2026-05-05 05:33 | 25.10903 | 54.88317 | 33996 ft | 479 kts | 226° |
| 2026-05-05 05:33 | 25.08903 | 54.85411 | 33997 ft | 474 kts | 244° |
| 2026-05-05 05:34 | 25.07883 | 54.81979 | 33996 ft | 472 kts | 262° |
| 2026-05-05 05:34 | 25.07934 | 54.78432 | 33996 ft | 472 kts | 280° |
| 2026-05-05 05:34 | 25.09048 | 54.75043 | 33996 ft | 474 kts | 298° |
| 2026-05-05 05:34 | 25.11128 | 54.72209 | 33996 ft | 479 kts | 316° |
| 2026-05-05 05:35 | 25.13950 | 54.70251 | 33996 ft | 486 kts | 335° |
| 2026-05-05 05:35 | 25.17251 | 54.69371 | 33996 ft | 493 kts | 353° |
| 2026-05-05 05:35 | 25.20682 | 54.69684 | 33996 ft | 501 kts | 11° |
| 2026-05-05 05:35 | 25.23909 | 54.71175 | 33996 ft | 508 kts | 29° |
| 2026-05-05 05:36 | 25.26638 | 54.73681 | 34003 ft | 513 kts | 44° |
| 2026-05-05 05:36 | 25.29067 | 54.76501 | 34003 ft | 513 kts | 42° |
| 2026-05-05 05:36 | 25.31863 | 54.78908 | 34000 ft | 509 kts | 30° |
| 2026-05-05 05:36 | 25.34933 | 54.80845 | 34004 ft | 509 kts | 26° |
| 2026-05-05 05:37 | 25.40888 | 54.85132 | 33997 ft | 514 kts | 38° |
| 2026-05-05 05:37 | 25.45444 | 54.91234 | 33999 ft | 520 kts | 60° |
| 2026-05-05 05:38 | 25.46839 | 54.94910 | 34000 ft | 522 kts | 72° |
| 2026-05-05 05:38 | 25.47541 | 54.98860 | 34000 ft | 523 kts | 84° |
| 2026-05-05 05:38 | 25.47510 | 55.02870 | 34000 ft | 523 kts | 96° |
| 2026-05-05 05:38 | 25.46653 | 55.06765 | 33995 ft | 521 kts | 114° |
| 2026-05-05 05:39 | 25.44840 | 55.10136 | 33996 ft | 517 kts | 131° |
| 2026-05-05 05:39 | 25.42179 | 55.12773 | 33996 ft | 510 kts | 149° |
| 2026-05-05 05:39 | 25.38982 | 55.14358 | 33996 ft | 503 kts | 168° |
| 2026-05-05 05:39 | 25.35568 | 55.14774 | 33996 ft | 495 kts | 186° |
| 2026-05-05 05:40 | 25.32206 | 55.14002 | 33905 ft | 489 kts | 204° |
| 2026-05-05 05:40 | 25.29296 | 55.12142 | 33732 ft | 483 kts | 221° |
| 2026-05-05 05:40 | 25.27093 | 55.09388 | 33476 ft | 478 kts | 239° |
| 2026-05-05 05:40 | 25.25811 | 55.06045 | 33191 ft | 473 kts | 256° |
| 2026-05-05 05:41 | 25.25058 | 55.02503 | 32906 ft | 472 kts | 256° |
| 2026-05-05 05:41 | 25.23908 | 54.99184 | 32603 ft | 473 kts | 241° |
| 2026-05-05 05:41 | 25.21835 | 54.96383 | 32299 ft | 470 kts | 223° |
| 2026-05-05 05:41 | 25.19079 | 54.94517 | 31996 ft | 466 kts | 204° |
| 2026-05-05 05:42 | 25.15926 | 54.93770 | 31691 ft | 463 kts | 185° |
| 2026-05-05 05:42 | 25.12754 | 54.94223 | 31387 ft | 461 kts | 165° |
| 2026-05-05 05:42 | 25.09918 | 54.95809 | 31084 ft | 459 kts | 145° |
| 2026-05-05 05:42 | 25.07729 | 54.98352 | 30779 ft | 456 kts | 124° |
| 2026-05-05 05:43 | 25.06463 | 55.01518 | 30476 ft | 451 kts | 104° |
| 2026-05-05 05:43 | 25.06233 | 55.04875 | 30181 ft | 444 kts | 85° |
| 2026-05-05 05:43 | 25.06754 | 55.08196 | 29891 ft | 436 kts | 75° |
| 2026-05-05 05:43 | 25.07623 | 55.11365 | 29596 ft | 429 kts | 70° |
| 2026-05-05 05:44 | 25.08639 | 55.14441 | 29295 ft | 423 kts | 68° |
| 2026-05-05 05:44 | 25.09693 | 55.17460 | 28992 ft | 418 kts | 68° |
| 2026-05-05 05:44 | 25.10724 | 55.20428 | 28689 ft | 412 kts | 68° |
| 2026-05-05 05:44 | 25.11706 | 55.23377 | 28387 ft | 408 kts | 69° |
| 2026-05-05 05:45 | 25.12622 | 55.26321 | 28084 ft | 403 kts | 71° |
| 2026-05-05 05:45 | 25.13457 | 55.29254 | 27781 ft | 398 kts | 72° |
| 2026-05-05 05:45 | 25.14196 | 55.32145 | 27483 ft | 394 kts | 74° |
| 2026-05-05 05:45 | 25.14840 | 55.35003 | 26830 ft | 371 kts | 76° |
| 2026-05-05 05:46 | 25.15352 | 55.37715 | 26049 ft | 350 kts | 79° |
| 2026-05-05 05:46 | 25.15742 | 55.40302 | 25285 ft | 336 kts | 81° |
| 2026-05-05 05:46 | 25.16024 | 55.42807 | 24530 ft | 326 kts | 84° |
| 2026-05-05 05:46 | 25.16202 | 55.45273 | 23773 ft | 318 kts | 86° |
| 2026-05-05 05:47 | 25.16222 | 55.47686 | 23019 ft | 311 kts | 92° |
| 2026-05-05 05:47 | 25.16013 | 55.50011 | 22275 ft | 305 kts | 100° |
| 2026-05-05 05:47 | 25.15549 | 55.52295 | 21527 ft | 304 kts | 107° |
| 2026-05-05 05:47 | 25.14853 | 55.54531 | 20878 ft | 317 kts | 113° |
| 2026-05-05 05:48 | 25.13939 | 55.56795 | 19977 ft | 334 kts | 117° |
| 2026-05-05 05:48 | 25.12800 | 55.59168 | 18731 ft | 362 kts | 120° |
| 2026-05-05 05:48 | 25.11545 | 55.61645 | 17758 ft | 378 kts | 120° |
| 2026-05-05 05:48 | 25.10238 | 55.64188 | 17103 ft | 383 kts | 120° |
| 2026-05-05 05:49 | 25.08922 | 55.66728 | 16746 ft | 378 kts | 120° |
| 2026-05-05 05:49 | 25.07632 | 55.69203 | 16634 ft | 366 kts | 121° |
| 2026-05-05 05:49 | 25.06390 | 55.71582 | 16691 ft | 349 kts | 121° |
| 2026-05-05 05:49 | 25.05224 | 55.73832 | 16817 ft | 330 kts | 119° |
| 2026-05-05 05:50 | 25.04392 | 55.76140 | 16530 ft | 325 kts | 106° |
| 2026-05-05 05:50 | 25.03941 | 55.78648 | 15352 ft | 350 kts | 97° |
| 2026-05-05 05:50 | 25.03675 | 55.81391 | 14325 ft | 369 kts | 94° |
| 2026-05-05 05:50 | 25.03496 | 55.84084 | 13256 ft | 335 kts | 92° |
| 2026-05-05 05:51 | 25.03360 | 55.86556 | 11920 ft | 314 kts | 92° |
| 2026-05-05 05:51 | 25.03241 | 55.88911 | 10445 ft | 303 kts | 92° |
| 2026-05-05 05:51 | 25.03129 | 55.91178 | 9315 ft | 285 kts | 91° |
| 2026-05-05 05:51 | 25.03026 | 55.93251 | 8686 ft | 254 kts | 91° |
| 2026-05-05 05:52 | 25.02930 | 55.95110 | 8662 ft | 233 kts | 91° |
| 2026-05-05 05:52 | 25.02840 | 55.96782 | 9216 ft | 207 kts | 91° |
| 2026-05-05 05:52 | 25.02755 | 55.98271 | 9919 ft | 190 kts | 91° |
| 2026-05-05 05:52 | 25.02668 | 55.99751 | 10555 ft | 197 kts | 91° |
| 2026-05-05 05:53 | 25.02580 | 56.01286 | 11373 ft | 204 kts | 91° |
| 2026-05-05 05:53 | 25.02488 | 56.02973 | 11667 ft | 234 kts | 91° |
| 2026-05-05 05:53 | 25.02394 | 56.04759 | 11856 ft | 233 kts | 91° |
| 2026-05-05 05:53 | 25.02303 | 56.06598 | 11955 ft | 246 kts | 92° |
| 2026-05-05 05:54 | 25.02484 | 56.08441 | 12375 ft | 234 kts | 77° |
| 2026-05-05 05:54 | 25.03065 | 56.10123 | 12419 ft | 247 kts | 63° |
| 2026-05-05 05:54 | 25.03968 | 56.11800 | 11785 ft | 267 kts | 55° |
| 2026-05-05 05:54 | 25.04672 | 56.13708 | 10930 ft | 268 kts | 69° |
| 2026-05-05 05:55 | 25.05017 | 56.15682 | 10108 ft | 258 kts | 80° |
| 2026-05-05 05:55 | 25.05049 | 56.17595 | 9587 ft | 246 kts | 90° |
| 2026-05-05 05:55 | 25.04836 | 56.19476 | 9098 ft | 247 kts | 97° |
| 2026-05-05 05:55 | 25.04371 | 56.21279 | 8563 ft | 245 kts | 108° |
| 2026-05-05 05:56 | 25.03220 | 56.22645 | 8035 ft | 247 kts | 143° |
| 2026-05-05 05:56 | 25.01565 | 56.23071 | 7540 ft | 249 kts | 178° |
| 2026-05-05 05:56 | 24.99964 | 56.22423 | 7043 ft | 248 kts | 212° |
| 2026-05-05 05:56 | 24.98969 | 56.20946 | 6560 ft | 245 kts | 245° |
| 2026-05-05 05:57 | 24.98603 | 56.19146 | 6151 ft | 241 kts | 262° |
| 2026-05-05 05:57 | 24.98471 | 56.17310 | 5654 ft | 235 kts | 268° |
| 2026-05-05 05:57 | 24.98427 | 56.15555 | 5151 ft | 225 kts | 270° |
| 2026-05-05 05:57 | 24.98418 | 56.13850 | 4648 ft | 220 kts | 271° |
| 2026-05-05 05:58 | 24.98428 | 56.12184 | 4145 ft | 215 kts | 271° |
| 2026-05-05 05:58 | 24.98451 | 56.10550 | 3643 ft | 212 kts | 272° |
| 2026-05-05 05:58 | 24.98485 | 56.08941 | 3141 ft | 208 kts | 272° |
| 2026-05-05 05:58 | 24.98528 | 56.07386 | 2744 ft | 199 kts | 272° |
| 2026-05-05 05:59 | 24.98581 | 56.05852 | 2376 ft | 200 kts | 273° |
| 2026-05-05 05:59 | 24.98643 | 56.04366 | 2240 ft | 196 kts | 273° |
| 2026-05-05 05:59 | 24.98714 | 56.02885 | 2205 ft | 195 kts | 274° |
| 2026-05-05 05:59 | 24.98797 | 56.01374 | 2202 ft | 196 kts | 274° |
| 2026-05-05 06:00 | 24.98890 | 55.99863 | 2201 ft | 197 kts | 275° |
| 2026-05-05 06:00 | 24.98993 | 55.98352 | 2201 ft | 198 kts | 275° |
| 2026-05-05 06:00 | 24.99107 | 55.96841 | 2200 ft | 198 kts | 275° |
| 2026-05-05 06:00 | 24.99232 | 55.95335 | 2199 ft | 196 kts | 276° |
| 2026-05-05 06:01 | 24.99365 | 55.93869 | 2197 ft | 193 kts | 276° |
| 2026-05-05 06:01 | 24.99509 | 55.92402 | 2198 ft | 192 kts | 277° |
| 2026-05-05 06:01 | 24.99663 | 55.90949 | 2198 ft | 191 kts | 277° |
| 2026-05-05 06:01 | 24.99828 | 55.89499 | 2199 ft | 190 kts | 278° |
| 2026-05-05 06:02 | 25.00004 | 55.88064 | 2199 ft | 189 kts | 278° |
| 2026-05-05 06:02 | 25.00190 | 55.86634 | 2199 ft | 188 kts | 279° |
| 2026-05-05 06:02 | 25.00388 | 55.85207 | 2200 ft | 188 kts | 279° |
| 2026-05-05 06:02 | 25.00598 | 55.83787 | 2200 ft | 188 kts | 280° |
| 2026-05-05 06:03 | 25.00841 | 55.82388 | 2125 ft | 190 kts | 282° |
| 2026-05-05 06:03 | 25.01207 | 55.80976 | 2025 ft | 188 kts | 288° |
| 2026-05-05 06:03 | 25.01667 | 55.79658 | 2002 ft | 186 kts | 292° |
| 2026-05-05 06:03 | 25.02211 | 55.78362 | 2001 ft | 186 kts | 296° |
| 2026-05-05 06:04 | 25.02807 | 55.77093 | 2000 ft | 186 kts | 298° |
| 2026-05-05 06:04 | 25.03438 | 55.75845 | 2000 ft | 186 kts | 300° |
| 2026-05-05 06:04 | 25.04089 | 55.74609 | 2000 ft | 186 kts | 301° |
| 2026-05-05 06:04 | 25.04752 | 55.73382 | 2000 ft | 186 kts | 301° |
| 2026-05-05 06:05 | 25.05422 | 55.72160 | 2000 ft | 186 kts | 302° |
| 2026-05-05 06:05 | 25.06084 | 55.70962 | 2000 ft | 186 kts | 302° |
| 2026-05-05 06:05 | 25.06759 | 55.69745 | 2000 ft | 186 kts | 302° |
| 2026-05-05 06:05 | 25.07436 | 55.68529 | 2000 ft | 186 kts | 302° |
| 2026-05-05 06:06 | 25.08113 | 55.67314 | 2000 ft | 186 kts | 302° |
| 2026-05-05 06:06 | 25.08792 | 55.66095 | 2000 ft | 186 kts | 302° |
| 2026-05-05 06:06 | 25.09469 | 55.64882 | 2000 ft | 186 kts | 302° |
| 2026-05-05 06:06 | 25.10147 | 55.63665 | 2000 ft | 186 kts | 302° |
| 2026-05-05 06:07 | 25.10824 | 55.62452 | 2000 ft | 186 kts | 302° |
| 2026-05-05 06:07 | 25.11501 | 55.61236 | 2000 ft | 186 kts | 302° |
| 2026-05-05 06:07 | 25.12168 | 55.60039 | 2000 ft | 186 kts | 302° |
| 2026-05-05 06:07 | 25.12849 | 55.58818 | 1919 ft | 189 kts | 302° |
| 2026-05-05 06:08 | 25.13536 | 55.57585 | 1764 ft | 188 kts | 302° |
| 2026-05-05 06:08 | 25.14222 | 55.56354 | 1504 ft | 189 kts | 302° |
| 2026-05-05 06:08 | 25.14904 | 55.55129 | 1209 ft | 187 kts | 302° |
| 2026-05-05 06:08 | 25.15587 | 55.53902 | 928 ft | 186 kts | 302° |
| 2026-05-05 06:09 | 25.16244 | 55.52721 | 718 ft | 178 kts | 302° |
| 2026-05-05 06:09 | 25.16878 | 55.51581 | 723 ft | 175 kts | 302° |
| 2026-05-05 06:09 | 25.17533 | 55.50402 | 523 ft | 178 kts | 302° |
| 2026-05-05 06:09 | 25.18159 | 55.49277 | 514 ft | 172 kts | 302° |
| 2026-05-05 06:10 | 25.18789 | 55.48144 | 537 ft | 173 kts | 302° |
| 2026-05-05 06:10 | 25.19421 | 55.47005 | 543 ft | 174 kts | 302° |
| 2026-05-05 06:10 | 25.20054 | 55.45866 | 513 ft | 175 kts | 301° |
| 2026-05-05 06:10 | 25.20700 | 55.44720 | 455 ft | 177 kts | 302° |
| 2026-05-05 06:11 | 25.21136 | 55.43963 | 450 ft | 176 kts | 302° |
| 2026-05-05 06:11 | 25.21786 | 55.42819 | 397 ft | 177 kts | 302° |
| 2026-05-05 06:11 | 25.22633 | 55.41291 | 318 ft | 177 kts | 301° |
| 2026-05-05 06:11 | 25.23266 | 55.40108 | 184 ft | 180 kts | 300° |
| 2026-05-05 06:12 | 25.23866 | 55.39027 | 85 ft | 145 kts | 302° |
| 2026-05-05 06:12 | 25.24306 | 55.38240 | 80 ft | 87 kts | 296° |
| 2026-05-05 06:12 | 25.24430 | 55.37977 | 79 ft | 47 kts | 301° |
| 2026-05-05 06:12 | 25.24599 | 55.37665 | 79 ft | 36 kts | 302° |
| 2026-05-05 06:13 | 25.24697 | 55.37493 | 79 ft | 12 kts | 302° |
| 2026-05-05 06:13 | 25.24735 | 55.37425 | 79 ft | 11 kts | 302° |
| 2026-05-05 06:13 | 25.24780 | 55.37314 | 79 ft | 22 kts | 280° |
| 2026-05-05 06:13 | 25.24784 | 55.37159 | 79 ft | 11 kts | 270° |
| 2026-05-05 06:14 | 25.24784 | 55.37111 | 79 ft | 3 kts | 270° |
| 2026-05-05 06:14 | 25.24785 | 55.37073 | 79 ft | 8 kts | 270° |
| 2026-05-05 06:14 | 25.24785 | 55.37031 | 79 ft | 9 kts | 270° |
| 2026-05-05 06:14 | 25.24756 | 55.36954 | 79 ft | 10 kts | 220° |
| 2026-05-05 06:15 | 25.24736 | 55.36887 | 79 ft | 10 kts | 278° |
| 2026-05-05 06:15 | 25.24769 | 55.36772 | 79 ft | 15 kts | 285° |
| 2026-05-05 06:15 | 25.24789 | 55.36691 | 79 ft | 13 kts | 285° |
| 2026-05-05 06:15 | 25.24796 | 55.36659 | 79 ft | 0 kts | 285° |
| 2026-05-05 06:16 | 25.24798 | 55.36649 | 79 ft | 4 kts | 280° |
| 2026-05-05 06:16 | 25.24789 | 55.36614 | 79 ft | 4 kts | 237° |
| 2026-05-05 06:16 | 25.24773 | 55.36594 | 79 ft | 5 kts | 226° |
| 2026-05-05 06:16 | 25.24742 | 55.36566 | 79 ft | 2 kts | 215° |
| 2026-05-05 06:17 | 25.24730 | 55.36556 | 79 ft | 2 kts | 215° |
| 2026-05-05 06:17 | 25.24719 | 55.36548 | 79 ft | 2 kts | 216° |
| 2026-05-05 06:17 | 25.24718 | 55.36547 | 79 ft | 0 kts | 216° |
| 2026-05-05 06:21 | 25.24715 | 55.36545 | 79 ft | 1 kts | 216° |
| 2026-05-05 06:21 | 25.24713 | 55.36543 | 79 ft | 0 kts | 216° |